Flight Track Log - Related Links

Times and Time Zones

All times are in EST time to prevent confusion due to time zone crossing. See the QTR722 flight status page for this flight to view local times or setup timezone preferences in your user account.

Time Position Orientation Groundspeed Altitude Reporting Facility
EST Latitude Longitude Course Direction KTS MPH feet Rate Location/Type
Tue 09:42:06 PM 41.9690 -87.9310 270° West 198 228 1,000  Level FlightAware ADS-B
Tue 09:42:32 PM 41.9700 -87.9640 272° West 199 229 2,200 2,746 Climbing FlightAware ADS-B
Tue 09:43:05 PM 41.9750 -88.0020 280° West 199 229 3,700 2,516 Climbing FlightAware ADS-B
Tue 09:43:34 PM 42.0000 -88.0240 327° Northwest 249 287 4,800 1,941 Climbing FlightAware ADS-B
Tue 09:43:39 PM 42.0050 -88.0240 360° North 253 291 4,800 1,385 Level FlightAware ADS-B
Tue 09:44:13 PM 42.0420 -87.9990 27° Northeast 290 334 5,700 1,655 Climbing FlightAware ADS-B
Tue 09:44:37 PM 42.0670 -87.9730 38° Northeast 304 350 6,400 1,909 Climbing FlightAware ADS-B
Tue 09:44:57 PM 42.0920 -87.9470 38° Northeast 316 364 7,100 2,000 Climbing FlightAware ADS-B
Tue 09:45:25 PM 42.1240 -87.9150 37° Northeast 333 383 8,000 2,160 Climbing FlightAware ADS-B
Tue 09:45:47 PM 42.1470 -87.8800 48° Northeast 341 392 8,900 2,478 Climbing FlightAware ADS-B
Tue 09:46:11 PM 42.1610 -87.8290 70° East 342 394 9,900 1,865 Climbing FlightAware ADS-B
Tue 09:47:01 PM 42.1790 -87.7190 78° East 387 445 11,200 1,468 Climbing FlightAware ADS-B
Tue 09:47:45 PM 42.1960 -87.6080 78° East 427 491 12,200 1,800 Climbing FlightAware ADS-B
Tue 09:48:11 PM 42.2060 -87.5430 78° East 433 498 13,300 2,531 Climbing FlightAware ADS-B
Tue 09:48:49 PM 42.2220 -87.4390 78° East 441 507 14,900 2,220 Climbing FlightAware ADS-B
Tue 09:49:51 PM 42.2480 -87.2730 78° East 460 529 17,000 1,979 Climbing FlightAware ADS-B
Tue 09:50:23 PM 42.2620 -87.1800 78° East 470 541 18,000 1,895 Climbing FlightAware ADS-B
Tue 09:51:07 PM 42.2780 -87.0530 80° East 481 554 19,400 1,875 Climbing FlightAware ADS-B
Tue 09:51:43 PM 42.2850 -86.9380 85° East 492 566 20,500 1,700 Climbing FlightAware ADS-B
Tue 09:52:07 PM 42.2880 -86.8650 87° East 499 574 21,100 1,650 Climbing FlightAware ADS-B
Tue 09:53:03 PM 42.2880 -86.6900 90° East 508 585 22,700 1,673 Climbing FlightAware ADS-B
Tue 09:53:51 PM 42.2770 -86.5390 96° East 518 596 24,000 1,556 Climbing FlightAware ADS-B
Tue 09:54:24 PM 42.2694 -86.4301 95° East 530 610 24,800 1,291 Climbing FlightAware ADS-B
Tue 09:55:10 PM 42.2588 -86.2791 95° East 543 625 25,700 1,200 Climbing FlightAware ADS-B
Tue 09:55:49 PM 42.2504 -86.1457 95° East 555 639 26,500 1,152 Climbing FlightAware ADS-B
Tue 09:56:49 PM 42.2390 -85.9390 94° East 569 655 27,600 1,200 Climbing FlightAware ADS-B
Tue 09:57:29 PM 42.2320 -85.7930 94° East 577 664 28,500 1,239 Climbing FlightAware ADS-B
Tue 09:58:21 PM 42.2230 -85.6030 94° East 587 676 29,500 1,138 Climbing FlightAware ADS-B
Tue 09:59:25 PM 42.2310 -85.3670 87° East 600 690 30,700 703 Climbing FlightAware ADS-B
Tue 10:00:29 PM 42.2560 -85.1290 82° East 599 689 31,000 158 Climbing FlightAware ADS-B
Tue 10:01:19 PM 42.2740 -84.9460 82° East 596 686 31,000  Level FlightAware ADS-B
Tue 10:02:16 PM 42.2950 -84.7380 82° East 595 685 31,000  Level FlightAware ADS-B
Tue 10:02:45 PM 42.3060 -84.6350 82° East 594 684 31,000  Level FlightAware ADS-B
Tue 10:03:12 PM 42.3170 -84.5270 82° East 593 682 31,000  Level FlightAware ADS-B
Tue 10:03:45 PM 42.3290 -84.4140 82° East 592 681 31,000  Level FlightAware ADS-B
Tue 10:04:42 PM 42.3650 -84.2030 77° East 592 681 31,000  Level FlightAware ADS-B
Tue 10:05:40 PM 42.4120 -83.9990 73° East 592 681 31,000  Level FlightAware ADS-B
Tue 10:06:38 PM 42.4580 -83.7920 73° East 590 679 31,000  Level FlightAware ADS-B
Tue 10:07:22 PM 42.4930 -83.6370 73° East 590 679 31,000  Level FlightAware ADS-B
Tue 10:08:14 PM 42.5350 -83.4580 72° East 589 678 31,000  Level FlightAware ADS-B
Tue 10:08:55 PM 42.5680 -83.3140 73° East 590 679 31,000  Level FlightAware ADS-B
Tue 10:09:53 PM 42.6150 -83.1060 73° East 590 679 31,000  Level FlightAware ADS-B
Tue 10:10:21 PM 42.6370 -83.0090 73° East 590 679 31,000  Level FlightAware ADS-B
Tue 10:11:17 PM 42.6820 -82.8080 73° East 587 676 31,000  Level FlightAware ADS-B
Tue 10:11:54 PM 42.7020 -82.7210 73° East 585 673 31,000  Level FlightAware ADS-B
Tue 10:12:49 PM 42.7540 -82.4850 73° East 583 671 31,000  Level FlightAware ADS-B
Tue 10:13:38 PM 42.7860 -82.3370 74° East 582 670 31,000  Level FlightAware ADS-B
Tue 10:14:31 PM 42.8260 -82.1510 74° East 581 669 31,000  Level FlightAware ADS-B
Tue 10:15:21 PM 42.8660 -81.9650 74° East 579 666 31,000  Level FlightAware ADS-B
Tue 10:16:11 PM 42.9030 -81.7920 74° East 576 663 31,000  Level FlightAware ADS-B
Tue 10:17:12 PM 42.9490 -81.5760 74° East 576 663 31,000  Level FlightAware ADS-B
Tue 10:18:02 PM 42.9820 -81.4180 74° East 574 661 31,000  Level FlightAware ADS-B
Tue 10:18:58 PM 43.0300 -81.1990 73° East 569 655 31,000  Level FlightAware ADS-B
Tue 10:19:44 PM 43.0860 -81.0580 61° Northeast 561 646 31,000  Level FlightAware ADS-B
Tue 10:20:45 PM 43.1790 -80.8830 54° Northeast 559 643 31,000  Level FlightAware ADS-B
Tue 10:21:41 PM 43.2650 -80.7210 54° Northeast 562 647 31,000  Level FlightAware ADS-B
Tue 10:22:34 PM 43.2765 -80.6993 54° Northeast 563 648 31,000  Level FlightAware ADS-B (CZBA)
Tue 10:23:20 PM 43.4160 -80.4330 54° Northeast 559 643 31,000  Level FlightAware ADS-B
Tue 10:24:08 PM 43.4870 -80.2960 54° Northeast 558 642 31,000  Level FlightAware ADS-B
Tue 10:25:21 PM 43.5232 -80.2262 54° Northeast 558 642 31,000  Level FlightAware ADS-B
Tue 10:25:53 PM 43.5919 -80.0932 54° Northeast 560 644 31,000  Level FlightAware ADS-B (CZBA)
Tue 10:26:07 PM 43.6650 -79.9510 55° Northeast 559 643 31,000  Level FlightAware ADS-B
Tue 10:27:04 PM 43.7490 -79.7870 55° Northeast 557 641 31,000  Level FlightAware ADS-B
Tue 10:27:56 PM 43.8270 -79.6350 55° Northeast 556 640 31,000  Level FlightAware ADS-B
Tue 10:28:48 PM 43.8990 -79.4780 57° Northeast 556 640 31,000  Level FlightAware ADS-B
Tue 10:29:44 PM 43.9740 -79.3120 58° Northeast 547 629 31,000  Level FlightAware ADS-B
Tue 10:30:41 PM 44.0490 -79.1450 58° Northeast 545 627 31,000  Level FlightAware ADS-B
Tue 10:31:33 PM 44.1200 -78.9890 58° Northeast 544 626 31,000  Level FlightAware ADS-B
Tue 10:32:23 PM 44.1880 -78.8360 58° Northeast 546 628 31,000  Level FlightAware ADS-B
Tue 10:32:44 PM 44.2130 -78.7770 59° Northeast 547 629 31,000  Level FlightAware ADS-B
Tue 10:33:25 PM 44.2670 -78.6520 59° Northeast 548 631 31,000  Level FlightAware ADS-B
Tue 10:34:23 PM 44.3420 -78.4750 59° Northeast 548 631 31,000  Level FlightAware ADS-B
Tue 10:35:15 PM 44.4080 -78.3180 59° Northeast 548 631 31,000  Level FlightAware ADS-B
Tue 10:36:03 PM 44.4710 -78.1700 59° Northeast 549 632 31,000  Level FlightAware ADS-B
Tue 10:37:03 PM 44.5480 -77.9840 60° Northeast 547 629 31,000  Level FlightAware ADS-B
Tue 10:37:34 PM 44.5870 -77.8910 59° Northeast 546 628 31,000  Level FlightAware ADS-B
Tue 10:38:43 PM 44.6750 -77.6800 60° Northeast 543 625 31,000  Level FlightAware ADS-B
Tue 10:39:15 PM 44.7150 -77.5830 60° Northeast 544 626 31,000  Level FlightAware ADS-B
Tue 10:40:10 PM 44.7820 -77.4180 60° Northeast 545 627 31,000  Level FlightAware ADS-B
Tue 10:40:59 PM 44.8450 -77.2640 60° Northeast 546 628 31,000  Level FlightAware ADS-B
Tue 10:41:48 PM 44.9050 -77.1160 60° Northeast 546 628 31,000  Level FlightAware ADS-B
Tue 10:42:21 PM 44.9480 -77.0100 60° Northeast 545 627 31,000  Level FlightAware ADS-B
Tue 10:43:16 PM 45.0170 -76.8380 60° Northeast 546 628 31,000  Level FlightAware ADS-B
Tue 10:43:51 PM 45.0600 -76.7310 60° Northeast 546 628 31,000  Level FlightAware ADS-B
Tue 10:44:42 PM 45.1230 -76.5710 61° Northeast 544 626 31,000  Level FlightAware ADS-B
Tue 10:45:28 PM 44.8750 -77.1890 241° Southwest 548 631 31,000  Level FlightAware ADS-B
Tue 10:46:16 PM 44.8830 -77.1710 58° Northeast 547 629 31,000  Level FlightAware ADS-B
Tue 10:47:08 PM 44.8940 -77.1430 61° Northeast 547 629 31,000  Level FlightAware ADS-B
Tue 10:47:47 PM 44.9030 -77.1220 59° Northeast 547 629 31,000  Level FlightAware ADS-B
Tue 10:48:17 PM 44.9150 -77.0910 61° Northeast 547 629 31,000  Level FlightAware ADS-B
Tue 10:48:51 PM 44.9290 -77.0580 59° Northeast 547 629 31,000  Level FlightAware ADS-B
Tue 10:49:46 PM 45.4900 -75.6290 60° Northeast 544 626 31,000  Level FlightAware ADS-B
Tue 10:50:41 PM 45.5570 -75.4530 61° Northeast 540 621 31,000  Level FlightAware ADS-B
Tue 10:51:37 PM 45.6220 -75.2830 61° Northeast 540 621 31,000  Level FlightAware ADS-B
Tue 10:52:37 PM 45.6940 -75.0920 62° Northeast 539 620 31,000  Level FlightAware ADS-B
Tue 10:53:27 PM 45.7540 -74.9320 62° Northeast 539 620 31,000  Level FlightAware ADS-B
Tue 10:54:32 PM 45.8290 -74.7300 62° Northeast 536 617 31,000  Level FlightAware ADS-B
Tue 10:55:12 PM 45.7240 -75.0130 242° Southwest 540 621 31,000  Level FlightAware ADS-B
Tue 10:55:48 PM 45.7450 -74.9560 62° Northeast 540 621 31,000  Level FlightAware ADS-B
Tue 10:56:22 PM 45.7850 -74.8480 62° Northeast 539 620 31,000  Level FlightAware ADS-B
Tue 10:57:00 PM 45.8000 -74.8090 61° Northeast 539 620 31,000  Level FlightAware ADS-B
Tue 10:57:28 PM 45.8050 -74.7950 63° Northeast 538 619 31,000  Level FlightAware ADS-B
Tue 10:58:05 PM 45.8290 -74.7300 62° Northeast 538 619 31,000  Level FlightAware ADS-B
Tue 10:58:36 PM 45.8360 -74.7120 61° Northeast 537 618 31,000  Level FlightAware ADS-B
Tue 10:59:07 PM 45.8430 -74.6930 62° Northeast 537 618 31,000  Level FlightAware ADS-B
Tue 10:59:40 PM 45.8480 -74.6790 63° Northeast 537 618 31,000  Level FlightAware ADS-B
Tue 11:00:15 PM 45.9210 -74.4800 62° Northeast 535 616 31,000  Level FlightAware ADS-B
Tue 11:00:43 PM 45.9310 -74.4540 61° Northeast 535 616 31,000  Level FlightAware ADS-B
Tue 11:01:16 PM 45.9350 -74.4420 64° Northeast 535 616 31,000  Level FlightAware ADS-B
Tue 11:01:48 PM 45.9400 -74.4300 59° Northeast 535 616 31,000  Level FlightAware ADS-B
Tue 11:02:24 PM 45.9450 -74.4140 66° East 535 616 31,000  Level FlightAware ADS-B
Tue 11:03:04 PM 46.0060 -74.2480 62° Northeast 536 617 31,000  Level FlightAware ADS-B
Tue 11:04:19 PM 46.4950 -72.8690 62° Northeast 534 615 31,000  Level FlightAware ADS-B
Tue 11:04:59 PM 46.5390 -72.7430 63° Northeast 528 608 31,000  Level FlightAware ADS-B
Tue 11:05:46 PM 46.5895 -72.5954 63° Northeast 530 610 31,000  Level FlightAware ADS-B
Tue 11:06:23 PM 46.6279 -72.4830 64° Northeast 530 610 31,000  Level FlightAware ADS-B
Tue 11:07:08 PM 46.6793 -72.3317 64° Northeast 531 611 31,000  Level FlightAware ADS-B
Tue 11:07:38 PM 46.7135 -72.2306 64° Northeast 531 611 31,000  Level FlightAware ADS-B
Tue 11:08:21 PM 46.7597 -72.0932 64° Northeast 530 610 31,000  Level FlightAware ADS-B
Tue 11:08:51 PM 46.7918 -71.9974 64° Northeast 531 611 31,000  Level FlightAware ADS-B
Tue 11:09:42 PM 46.8449 -71.8382 64° Northeast 530 610 31,000  Level FlightAware ADS-B
Tue 11:10:23 PM 46.8896 -71.7030 64° Northeast 531 611 31,000  Level FlightAware ADS-B
Tue 11:11:06 PM 46.9331 -71.5711 64° Northeast 531 611 31,000  Level FlightAware ADS-B
Tue 11:11:36 PM 46.9658 -71.4714 64° Northeast 532 612 31,000  Level FlightAware ADS-B
Tue 11:12:18 PM 47.0119 -71.3306 64° Northeast 531 611 31,000  Level FlightAware ADS-B
Tue 11:12:48 PM 47.0444 -71.2307 64° Northeast 532 612 31,000  Level FlightAware ADS-B
Tue 11:13:18 PM 46.1750 -73.7800 245° Southwest 540 621 31,000  Level FlightAware ADS-B
Tue 11:13:31 PM 47.0904 -71.0882 63° Northeast 535 616 31,000  Level FlightAware ADS-B
Tue 11:13:48 PM 46.1860 -73.7480 245° Southwest 541 623 31,000  Level FlightAware ADS-B
Tue 11:14:02 PM 47.1224 -70.9893 63° Northeast 536 617 31,000  Level FlightAware ADS-B
Tue 11:14:48 PM 46.1950 -73.7240 245° Southwest 541 623 31,000  Level FlightAware ADS-B
Tue 11:15:33 PM 47.2185 -70.6884 63° Northeast 536 617 31,000  Level FlightAware ADS-B
Tue 11:15:50 PM 46.2060 -73.6930 245° Southwest 540 621 31,000  Level FlightAware ADS-B
Tue 11:16:18 PM 47.2657 -70.5393 63° Northeast 538 619 31,000  Level FlightAware ADS-B
Tue 11:16:38 PM 46.2120 -73.6770 245° Southwest 540 621 31,000  Level FlightAware ADS-B
Tue 11:17:01 PM 47.3018 -70.4248 63° Northeast 535 616 31,000  Level FlightAware ADS-B
Tue 11:17:44 PM 47.3515 -70.2665 65° Northeast 537 618 31,000  Level FlightAware ADS-B
Tue 11:18:29 PM 47.3946 -70.1282 65° Northeast 538 619 31,000  Level FlightAware ADS-B
Tue 11:19:28 PM 47.4600 -69.9170 65° Northeast 537 618 31,000  Level FlightAware ADS-B
Tue 11:19:53 PM 47.4870 -69.8290 66° East 535 616 31,000  Level FlightAware ADS-B
Tue 11:20:37 PM 46.2290 -73.6300 246° West 539 620 31,000  Level FlightAware ADS-B
Tue 11:21:16 PM 46.2410 -73.5950 64° Northeast 539 620 31,000  Level FlightAware ADS-B
Tue 11:21:58 PM 47.6110 -69.4210 63° Northeast 536 617 31,000  Level FlightAware ADS-B
Tue 11:23:01 PM 47.6670 -69.2430 65° Northeast 536 617 31,000  Level FlightAware ADS-B
Tue 11:24:02 PM 47.6112 -69.4212 245° Southwest 541 623 31,000  Level FlightAware ADS-B
Tue 11:29:44 PM 46.4350 -73.0430 246° West 535 616 31,000  Level FlightAware ADS-B
Tue 11:30:30 PM 46.4380 -73.0350 61° Northeast 535 616 31,000  Level FlightAware ADS-B
Tue 11:31:01 PM 46.4510 -72.9970 64° Northeast 535 616 31,000  Level FlightAware ADS-B
Tue 11:31:29 PM 46.4680 -72.9470 64° Northeast 535 616 31,000  Level FlightAware ADS-B
Tue 11:32:07 PM 46.4760 -72.9250 62° Northeast 535 616 31,000  Level FlightAware ADS-B
Tue 11:32:38 PM 46.4820 -72.9080 63° Northeast 536 617 31,000  Level FlightAware ADS-B
Tue 11:33:23 PM 46.4850 -72.9000 61° Northeast 536 617 31,000  Level FlightAware ADS-B
Tue 11:34:14 PM 46.4920 -72.8780 65° Northeast 535 616 31,000  Level FlightAware ADS-B
Tue 11:34:49 PM 46.4980 -72.8600 64° Northeast 535 616 31,000 851 Level FlightAware ADS-B
Tue 11:36:28 PM 48.2620 -66.3210 66° East 538 619 32,900 816 Climbing FlightAware ADS-B
Tue 11:37:16 PM 48.2940 -66.1490 74° East 537 618 33,000 60 Climbing FlightAware ADS-B
Tue 11:38:08 PM 48.3270 -65.9630 75° East 538 619 33,000  Level FlightAware ADS-B
Tue 11:39:04 PM 48.3630 -65.7610 75° East 536 617 33,000  Level FlightAware ADS-B
Tue 11:39:52 PM 48.3930 -65.5900 75° East 533 613 33,000  Level FlightAware ADS-B
Tue 11:40:23 PM 48.4130 -65.4800 75° East 533 613 33,000  Level FlightAware ADS-B
Tue 11:41:12 PM 48.4430 -65.3010 76° East 536 617 33,000  Level FlightAware ADS-B
Tue 11:41:43 PM 48.4620 -65.1930 75° East 536 617 33,000  Level FlightAware ADS-B
Tue 11:42:36 PM 48.4950 -64.9970 76° East 536 617 33,000  Level FlightAware ADS-B
Tue 11:43:20 PM 48.5220 -64.8380 76° East 536 617 33,000  Level FlightAware ADS-B
Tue 11:44:12 PM 48.5540 -64.6490 76° East 540 621 33,000  Level FlightAware ADS-B
Tue 11:44:36 PM 48.5680 -64.5630 76° East 543 625 33,000  Level FlightAware ADS-B
Tue 11:45:28 PM 48.5990 -64.3710 76° East 543 625 33,000  Level FlightAware ADS-B
Tue 11:46:01 PM 48.6190 -64.2530 76° East 542 624 33,000  Level FlightAware ADS-B
Tue 11:46:26 PM 48.6340 -64.1600 76° East 543 625 33,000  Level FlightAware ADS-B
Tue 11:47:20 PM 48.6660 -63.9580 76° East 545 627 33,000  Level FlightAware ADS-B
Tue 11:48:17 PM 48.6990 -63.7510 76° East 547 629 33,000  Level FlightAware ADS-B
Tue 11:48:43 PM 48.7140 -63.6550 77° East 548 631 33,000  Level FlightAware ADS-B
Tue 11:49:17 PM 48.7340 -63.5250 77° East 548 631 33,000  Level FlightAware ADS-B
Tue 11:49:55 PM 48.7560 -63.3860 76° East 550 633 33,000  Level FlightAware ADS-B
Tue 11:50:51 PM 48.7880 -63.1750 77° East 550 633 33,000  Level FlightAware ADS-B
Tue 11:51:26 PM 48.8070 -63.0450 77° East 551 634 33,000  Level FlightAware ADS-B
Tue 11:52:20 PM 48.8380 -62.8410 77° East 551 634 33,000  Level FlightAware ADS-B
Tue 11:53:16 PM 48.8690 -62.6300 77° East 549 632 33,000  Level FlightAware ADS-B
Tue 11:54:05 PM 48.8960 -62.4450 77° East 545 627 33,000  Level FlightAware ADS-B
Tue 11:55:05 PM 48.9270 -62.2260 78° East 543 625 33,000  Level FlightAware ADS-B
Tue 11:55:45 PM 48.9490 -62.0720 78° East 543 625 33,000  Level FlightAware ADS-B
Tue 11:56:35 PM 48.9750 -61.8920 78° East 539 620 33,000  Level FlightAware ADS-B
Tue 11:57:26 PM 48.9970 -61.7310 78° East 539 620 33,000  Level FlightAware ADS-B
Tue 11:57:50 PM 49.0080 -61.6550 78° East 539 620 33,000  Level FlightAware ADS-B
Tue 11:59:02 PM 49.0390 -61.4270 78° East 539 620 33,000  Level FlightAware ADS-B
Tue 11:59:26 PM 49.0500 -61.3510 78° East 539 620 33,000  Level FlightAware ADS-B
Wed 12:00:26 AM 49.0760 -61.1610 78° East 539 620 33,000  Level FlightAware ADS-B
Wed 12:01:15 AM 49.0980 -61.0060 78° East 539 620 33,000  Level FlightAware ADS-B
Wed 12:02:04 AM 49.1190 -60.8510 78° East 539 620 33,000  Level FlightAware ADS-B
Wed 12:02:40 AM 49.1350 -60.7370 78° East 539 620 33,000  Level FlightAware ADS-B
Wed 12:03:28 AM 49.1560 -60.5850 78° East 539 620 33,000  Level FlightAware ADS-B
Wed 12:03:53 AM 49.1670 -60.5060 78° East 539 620 33,000  Level FlightAware ADS-B
Wed 12:04:53 AM 49.1940 -60.3150 78° East 539 620 33,000  Level FlightAware ADS-B
Wed 12:05:53 AM 49.2200 -60.1250 78° East 539 620 33,000  Level FlightAware ADS-B
Wed 12:07:37 AM 49.2920 -59.4130 81° East 536 617 33,000  Level FlightAware ADS-B
Wed 12:08:17 AM 49.3090 -59.2670 80° East 533 613 33,000  Level FlightAware ADS-B
Wed 12:08:56 AM 49.3260 -59.1140 80° East 533 613 33,000  Level FlightAware ADS-B
Wed 12:09:26 AM 49.3380 -59.0050 80° East 531 611 33,000  Level FlightAware ADS-B
Wed 12:10:32 AM 49.3660 -58.7610 80° East 530 610 33,000  Level FlightAware ADS-B
Wed 12:11:26 AM 49.3980 -58.5640 76° East 524 603 33,000  Level FlightAware ADS-B
Wed 12:12:22 AM 49.4390 -58.3820 71° East 527 606 33,000  Level FlightAware ADS-B
Wed 12:13:12 AM 49.4810 -58.1930 71° East 526 605 33,000  Level FlightAware ADS-B
Wed 12:13:37 AM 49.5010 -58.1040 71° East 525 604 33,000  Level FlightAware ADS-B
Wed 12:14:01 AM 49.5210 -58.0170 70° East 526 605 33,000  Level FlightAware ADS-B
Wed 12:14:42 AM 49.5520 -57.8780 71° East 527 606 33,000  Level FlightAware ADS-B
Wed 12:15:14 AM 49.5750 -57.7760 71° East 525 604 33,000  Level FlightAware ADS-B
Wed 12:16:06 AM 49.6200 -57.5760 71° East 526 605 33,000  Level FlightAware ADS-B
Wed 12:16:32 AM 49.6390 -57.4880 72° East 526 605 33,000  Level FlightAware ADS-B
Wed 12:17:12 AM 49.6710 -57.3440 71° East 526 605 33,000  Level FlightAware ADS-B
Wed 12:18:07 AM 49.7120 -57.1540 71° East 523 602 33,000  Level FlightAware ADS-B
Wed 12:18:47 AM 49.7440 -57.0100 71° East 524 603 33,000  Level FlightAware ADS-B
Wed 12:19:32 AM 49.7780 -56.8480 72° East 528 608 33,000  Level FlightAware ADS-B
Wed 12:20:32 AM 49.8240 -56.6340 71° East 528 608 33,000  Level FlightAware ADS-B
Wed 12:21:12 AM 49.8530 -56.4980 72° East 531 611 33,000  Level FlightAware ADS-B
Wed 12:21:41 AM 49.8770 -56.3810 72° East 531 611 33,000  Level FlightAware ADS-B
Wed 12:22:37 AM 49.9190 -56.1820 72° East 532 612 33,000  Level FlightAware ADS-B
Wed 12:23:07 AM 49.9410 -56.0740 72° East 530 610 33,000  Level FlightAware ADS-B
Wed 12:23:57 AM 49.9780 -55.8930 72° East 528 608 33,000  Level FlightAware ADS-B
Wed 12:24:52 AM 50.0180 -55.6980 72° East 527 606 33,000  Level FlightAware ADS-B
Wed 12:25:47 AM 50.0590 -55.4960 72° East 526 605 33,000  Level FlightAware ADS-B
Wed 12:26:42 AM 50.0980 -55.2990 73° East 524 603 33,000  Level FlightAware ADS-B
Wed 12:27:12 AM 50.1200 -55.1890 73° East 524 603 33,000  Level FlightAware ADS-B
Wed 12:27:47 AM 50.1440 -55.0640 73° East 523 602 33,000  Level FlightAware ADS-B
Wed 12:28:37 AM 50.1780 -54.8860 73° East 525 604 33,000  Level FlightAware ADS-B
Wed 12:29:02 AM 50.1960 -54.7940 73° East 525 604 33,000  Level FlightAware ADS-B
Wed 12:30:02 AM 50.2370 -54.5760 74° East 525 604 33,000  Level FlightAware ADS-B
Wed 12:30:56 AM 50.2750 -54.3760 73° East 527 606 33,000  Level FlightAware ADS-B
Wed 12:32:02 AM 50.3190 -54.1380 74° East 527 606 33,000  Level FlightAware ADS-B
Wed 12:32:57 AM 50.3560 -53.9420 73° East 528 608 33,000  Level FlightAware ADS-B
Wed 12:33:46 AM 50.3890 -53.7560 74° East 530 610 33,000  Level FlightAware ADS-B
Wed 12:34:37 AM 50.4230 -53.5700 74° East 529 609 33,000  Level FlightAware ADS-B
Wed 12:35:12 AM 50.4460 -53.4400 74° East 528 608 33,000  Level FlightAware ADS-B
Wed 12:36:07 AM 50.4820 -53.2390 74° East 526 605 33,000  Level FlightAware ADS-B
Wed 12:36:57 AM 50.5120 -53.0650 75° East 526 605 33,000  Level FlightAware ADS-B
Wed 12:37:34 AM 50.5330 -52.9490 74° East 526 605 33,000  Level FlightAware ADS-B
Wed 12:38:34 AM 50.5670 -52.7620 74° East 526 605 33,000  Level FlightAware ADS-B
Wed 12:39:10 AM 50.5880 -52.6490 74° East 526 605 33,000  Level FlightAware ADS-B
Wed 12:39:59 AM 50.6160 -52.4950 74° East 526 605 33,000  Level FlightAware ADS-B
Wed 12:40:23 AM 50.6290 -52.4200 75° East 526 605 33,000  Level FlightAware ADS-B
Wed 12:40:59 AM 50.6500 -52.3070 74° East 526 605 33,000  Level FlightAware ADS-B
Wed 12:42:00 AM 50.6850 -52.1160 74° East 526 605 33,000  Level FlightAware ADS-B
Wed 12:42:36 AM 50.7050 -52.0030 74° East 526 605 33,000  Level FlightAware ADS-B
Wed 12:43:26 AM 50.7340 -51.8460 74° East 526 605 33,000  Level FlightAware ADS-B
Wed 12:43:50 AM 50.7470 -51.7700 75° East 526 605 33,000  Level FlightAware ADS-B
Wed 12:44:38 AM 50.7750 -51.6190 74° East 526 605 33,000  Level FlightAware ADS-B
Wed 12:45:15 AM 50.7960 -51.5030 74° East 526 605 33,000  Level FlightAware ADS-B
Wed 12:45:51 AM 50.8160 -51.3900 74° East 526 605 33,000  Level FlightAware ADS-B
Wed 12:46:39 AM 50.8430 -51.2390 74° East 526 605 33,000  Level FlightAware ADS-B
Wed 12:47:25 AM 50.8667 -50.6833 74° East 520 598 33,000  Level Gander Center
Wed 12:48:25 AM 50.9167 -50.4667 70° East 530 610 33,000  Level Gander Center
Wed 12:50:25 AM 50.9833 -50.0167 77° East 530 610 33,000  Level Gander Center
Wed 12:51:25 AM 51.0333 -49.8000 70° East 520 598 33,000  Level Gander Center
Wed 12:52:25 AM 51.0667 -49.6000 75° East 520 598 33,000 14 Level Gander Center
Wed 12:54:00 AM 51.1535 -49.2521 68° East  Level FlightAware Approximate
Wed 01:01:00 AM 51.5364 -47.6476 68° East  Level FlightAware Approximate
Wed 01:02:00 AM 51.5893 -47.4162 70° East  Level FlightAware Approximate
Wed 01:03:00 AM 51.6418 -47.1843 70° East  Level FlightAware Approximate
Wed 01:04:00 AM 51.6938 -46.9518 70° East  Level FlightAware Approximate
Wed 01:05:00 AM 51.7453 -46.7188 70° East  Level FlightAware Approximate
Wed 01:06:00 AM 51.7964 -46.4853 70° East  Level FlightAware Approximate
Wed 01:07:00 AM 51.8470 -46.2513 71° East  Level FlightAware Approximate
Wed 01:08:00 AM 51.8971 -46.0167 71° East  Level FlightAware Approximate
Wed 01:09:00 AM 51.9468 -45.7816 71° East  Level FlightAware Approximate
Wed 01:10:00 AM 51.9960 -45.5460 71° East  Level FlightAware Approximate
Wed 01:11:00 AM 52.0448 -45.3098 71° East  Level FlightAware Approximate
Wed 01:12:00 AM 52.0930 -45.0732 72° East  Level FlightAware Approximate
Wed 01:13:00 AM 52.1408 -44.8360 72° East  Level FlightAware Approximate
Wed 01:14:00 AM 52.1881 -44.5983 72° East  Level FlightAware Approximate
Wed 01:15:00 AM 52.2350 -44.3602 72° East  Level FlightAware Approximate
Wed 01:16:00 AM 52.2813 -44.1215 72° East  Level FlightAware Approximate
Wed 01:17:00 AM 52.3272 -43.8823 72° East  Level FlightAware Approximate
Wed 01:18:00 AM 52.3740 -43.6435 72° East  Level FlightAware Approximate
Wed 01:19:00 AM 52.4205 -43.4042 72° East  Level FlightAware Approximate
Wed 01:20:00 AM 52.4666 -43.1643 72° East  Level FlightAware Approximate
Wed 01:21:00 AM 52.5121 -42.9240 73° East  Level FlightAware Approximate
Wed 01:22:00 AM 52.5558 -42.6825 73° East  Level FlightAware Approximate
Wed 01:23:00 AM 52.5987 -42.4404 74° East  Level FlightAware Approximate
Wed 01:24:00 AM 52.6412 -42.1978 74° East  Level FlightAware Approximate
Wed 01:25:00 AM 52.6832 -41.9548 74° East  Level FlightAware Approximate
Wed 01:26:00 AM 52.7247 -41.7113 74° East  Level FlightAware Approximate
Wed 01:27:00 AM 52.7656 -41.4673 74° East  Level FlightAware Approximate
Wed 01:28:00 AM 52.8061 -41.2229 75° East  Level FlightAware Approximate
Wed 01:29:00 AM 52.8461 -40.9780 75° East  Level FlightAware Approximate
Wed 01:30:00 AM 52.8856 -40.7327 75° East  Level FlightAware Approximate
Wed 01:31:00 AM 52.9245 -40.4869 75° East  Level FlightAware Approximate
Wed 01:32:00 AM 52.9630 -40.2407 75° East  Level FlightAware Approximate
Wed 01:33:00 AM 53.0009 -39.9940 76° East  Level FlightAware Approximate
Wed 01:34:00 AM 53.0365 -39.7462 76° East  Level FlightAware Approximate
Wed 01:35:00 AM 53.0716 -39.4980 77° East  Level FlightAware Approximate
Wed 01:36:00 AM 53.1062 -39.2494 77° East  Level FlightAware Approximate
Wed 01:37:00 AM 53.1403 -39.0003 77° East  Level FlightAware Approximate
Wed 01:38:00 AM 53.1738 -38.7509 77° East  Level FlightAware Approximate
Wed 01:39:00 AM 53.2068 -38.5011 77° East  Level FlightAware Approximate
Wed 01:40:00 AM 53.2393 -38.2509 78° East  Level FlightAware Approximate
Wed 01:41:00 AM 53.2713 -38.0004 78° East  Level FlightAware Approximate
Wed 01:42:00 AM 53.3028 -37.7495 78° East  Level FlightAware Approximate
Wed 01:43:00 AM 53.3337 -37.4982 78° East  Level FlightAware Approximate
Wed 01:44:00 AM 53.3641 -37.2465 78° East  Level FlightAware Approximate
Wed 01:45:00 AM 53.3940 -36.9945 79° East  Level FlightAware Approximate
Wed 01:46:00 AM 53.4233 -36.7421 79° East  Level FlightAware Approximate
Wed 01:47:00 AM 53.4521 -36.4894 79° East  Level FlightAware Approximate
Wed 01:48:00 AM 53.4804 -36.2364 79° East  Level FlightAware Approximate
Wed 01:49:00 AM 53.5081 -35.9830 79° East  Level FlightAware Approximate
Wed 01:50:00 AM 53.5353 -35.7293 80° East  Level FlightAware Approximate
Wed 01:51:00 AM 53.5619 -35.4753 80° East  Level FlightAware Approximate
Wed 01:52:00 AM 53.5881 -35.2209 80° East  Level FlightAware Approximate
Wed 01:53:00 AM 53.6136 -34.9663 80° East  Level FlightAware Approximate
Wed 01:54:00 AM 53.6387 -34.7113 80° East  Level FlightAware Approximate
Wed 01:55:00 AM 53.6632 -34.4560 81° East  Level FlightAware Approximate
Wed 01:56:00 AM 53.6871 -34.2005 81° East  Level FlightAware Approximate
Wed 01:57:00 AM 53.7105 -33.9446 81° East  Level FlightAware Approximate
Wed 01:58:00 AM 53.7334 -33.6885 81° East  Level FlightAware Approximate
Wed 01:59:00 AM 53.7557 -33.4321 82° East  Level FlightAware Approximate
Wed 02:00:00 AM 53.7775 -33.1754 82° East  Level FlightAware Approximate
Wed 02:01:00 AM 53.7987 -32.9184 82° East  Level FlightAware Approximate
Wed 02:02:00 AM 53.8194 -32.6612 82° East  Level FlightAware Approximate
Wed 02:03:00 AM 53.8395 -32.4038 82° East  Level FlightAware Approximate
Wed 02:04:00 AM 53.8591 -32.1461 83° East  Level FlightAware Approximate
Wed 02:05:00 AM 53.8781 -31.8882 83° East  Level FlightAware Approximate
Wed 02:06:00 AM 53.8965 -31.6300 83° East  Level FlightAware Approximate
Wed 02:07:00 AM 53.9145 -31.3716 83° East  Level FlightAware Approximate
Wed 02:08:00 AM 53.9318 -31.1130 83° East  Level FlightAware Approximate
Wed 02:09:00 AM 53.9486 -30.8542 84° East  Level FlightAware Approximate
Wed 02:10:00 AM 53.9648 -30.5952 84° East  Level FlightAware Approximate
Wed 02:11:00 AM 53.9805 -30.3360 84° East  Level FlightAware Approximate
Wed 02:12:00 AM 53.9956 -30.0766 84° East  Level FlightAware Approximate
Wed 02:13:00 AM 54.0075 -29.8166 86° East  Level FlightAware Approximate
Wed 02:14:00 AM 54.0176 -29.5564 86° East  Level FlightAware Approximate
Wed 02:15:00 AM 54.0272 -29.2960 86° East  Level FlightAware Approximate
Wed 02:16:00 AM 54.0362 -29.0355 87° East  Level FlightAware Approximate
Wed 02:17:00 AM 54.0447 -28.7749 87° East  Level FlightAware Approximate
Wed 02:18:00 AM 54.0526 -28.5142 87° East  Level FlightAware Approximate
Wed 02:19:00 AM 54.0599 -28.2533 87° East  Level FlightAware Approximate
Wed 02:20:00 AM 54.0667 -27.9925 87° East  Level FlightAware Approximate
Wed 02:21:00 AM 54.0729 -27.7315 88° East  Level FlightAware Approximate
Wed 02:22:00 AM 54.0785 -27.4704 88° East  Level FlightAware Approximate
Wed 02:23:00 AM 54.0836 -27.2093 88° East  Level FlightAware Approximate
Wed 02:24:00 AM 54.0881 -26.9481 88° East  Level FlightAware Approximate
Wed 02:25:00 AM 54.0920 -26.6869 88° East  Level FlightAware Approximate
Wed 02:26:00 AM 54.0954 -26.4256 89° East  Level FlightAware Approximate
Wed 02:27:00 AM 54.0982 -26.1643 89° East  Level FlightAware Approximate
Wed 02:28:00 AM 54.1004 -25.9029 89° East  Level FlightAware Approximate
Wed 02:29:00 AM 54.1021 -25.6416 89° East  Level FlightAware Approximate
Wed 02:30:00 AM 54.1032 -25.3802 89° East  Level FlightAware Approximate
Wed 02:31:00 AM 54.1037 -25.1188 90° East  Level FlightAware Approximate
Wed 02:32:00 AM 54.1037 -24.8574 90° East  Level FlightAware Approximate
Wed 02:33:00 AM 54.1031 -24.5960 90° East  Level FlightAware Approximate
Wed 02:34:00 AM 54.1020 -24.3346 90° East  Level FlightAware Approximate
Wed 02:35:00 AM 54.1003 -24.0732 91° East  Level FlightAware Approximate
Wed 02:36:00 AM 54.0980 -23.8118 91° East  Level FlightAware Approximate
Wed 02:37:00 AM 54.0951 -23.5505 91° East  Level FlightAware Approximate
Wed 02:38:00 AM 54.0917 -23.2892 91° East  Level FlightAware Approximate
Wed 02:39:00 AM 54.0877 -23.0280 91° East  Level FlightAware Approximate
Wed 02:40:00 AM 54.0831 -22.7668 92° East  Level FlightAware Approximate
Wed 02:41:00 AM 54.0780 -22.5057 92° East  Level FlightAware Approximate
Wed 02:42:00 AM 54.0723 -22.2447 92° East  Level FlightAware Approximate
Wed 02:43:00 AM 54.0661 -21.9837 92° East  Level FlightAware Approximate
Wed 02:44:00 AM 54.0593 -21.7228 92° East  Level FlightAware Approximate
Wed 02:45:00 AM 54.0519 -21.4620 93° East  Level FlightAware Approximate
Wed 02:46:00 AM 54.0439 -21.2013 93° East  Level FlightAware Approximate
Wed 02:47:00 AM 54.0354 -20.9407 93° East  Level FlightAware Approximate
Wed 02:48:00 AM 54.0264 -20.6802 93° East  Level FlightAware Approximate
Wed 02:49:00 AM 54.0167 -20.4198 93° East  Level FlightAware Approximate
Wed 02:50:00 AM 54.0065 -20.1596 94° East  Level FlightAware Approximate
Wed 02:51:00 AM 54.0021 -19.8992 88° East  Level FlightAware Approximate
Wed 02:52:00 AM 54.0071 -19.6386 88° East  Level FlightAware Approximate
Wed 02:53:00 AM 54.0116 -19.3779 88° East  Level FlightAware Approximate
Wed 02:54:00 AM 54.0155 -19.1171 88° East  Level FlightAware Approximate
Wed 02:55:00 AM 54.0189 -18.8563 89° East  Level FlightAware Approximate
Wed 02:56:00 AM 54.0216 -18.5955 89° East  Level FlightAware Approximate
Wed 02:57:00 AM 54.0239 -18.3346 89° East  Level FlightAware Approximate
Wed 02:58:00 AM 54.0255 -18.0737 89° East  Level FlightAware Approximate
Wed 02:59:00 AM 54.0266 -17.8128 89° East  Level FlightAware Approximate
Wed 03:00:00 AM 54.0271 -17.5519 90° East  Level FlightAware Approximate
Wed 03:01:00 AM 54.0271 -17.2910 90° East  Level FlightAware Approximate
Wed 03:02:00 AM 54.0265 -17.0301 90° East  Level FlightAware Approximate
Wed 03:03:00 AM 54.0253 -16.7691 90° East  Level FlightAware Approximate
Wed 03:04:00 AM 54.0236 -16.5082 91° East  Level FlightAware Approximate
Wed 03:05:00 AM 54.0213 -16.2474 91° East  Level FlightAware Approximate
Wed 03:06:00 AM 54.0184 -15.9866 91° East  Level FlightAware Approximate
Wed 03:07:00 AM 54.0150 -15.7258 91° East  Level FlightAware Approximate
Wed 03:08:00 AM 54.0110 -15.4650 91° East  Level FlightAware Approximate
Wed 03:09:00 AM 54.0064 -15.2043 92° East  Level FlightAware Approximate
Wed 03:10:00 AM 54.0013 -14.9437 92° East  Level FlightAware Approximate
Wed 03:11:00 AM 53.9975 -14.6830 92° East  Level FlightAware Approximate
Wed 03:11:02 AM 53.9860 -14.2060 92° East 613 705 35,000  Level FlightAware ADS-B
Wed 03:11:37 AM 53.9820 -14.0360 92° East 613 705 35,000  Level FlightAware ADS-B
Wed 03:12:00 AM 53.9922 -14.4225 92° East  Level FlightAware Approximate
Wed 03:12:37 AM 53.9750 -13.7530 92° East 611 703 35,000  Level FlightAware ADS-B
Wed 03:13:02 AM 53.9720 -13.6330 92° East 611 703 35,000  Level FlightAware ADS-B
Wed 03:13:42 AM 53.9670 -13.4570 93° East 611 703 35,000  Level FlightAware ADS-B
Wed 03:14:12 AM 53.9630 -13.2960 92° East 612 704 35,000  Level FlightAware ADS-B
Wed 03:15:12 AM 53.9550 -13.0260 93° East 612 704 35,000  Level FlightAware ADS-B
Wed 03:15:47 AM 53.9490 -12.8470 93° East 611 703 35,000  Level FlightAware ADS-B
Wed 03:16:42 AM 53.9400 -12.5850 93° East 612 704 35,000  Level FlightAware ADS-B
Wed 03:17:52 AM 53.9280 -12.2500 93° East 612 704 35,000  Level FlightAware ADS-B
Wed 03:18:52 AM 53.9170 -11.9590 94° East 611 703 35,000  Level FlightAware ADS-B
Wed 03:19:22 AM 53.9110 -11.8140 94° East 610 702 35,000  Level FlightAware ADS-B
Wed 03:19:57 AM 53.9040 -11.6510 94° East 611 703 35,000  Level FlightAware ADS-B
Wed 03:20:57 AM 53.8910 -11.3640 94° East 609 701 35,000  Level FlightAware ADS-B
Wed 03:21:32 AM 53.8840 -11.1970 94° East 609 701 35,000  Level FlightAware ADS-B
Wed 03:22:02 AM 53.8770 -11.0560 95° East 611 703 35,000  Level FlightAware ADS-B
Wed 03:22:32 AM 53.8700 -10.9110 95° East 611 703 35,000  Level FlightAware ADS-B
Wed 03:23:02 AM 53.8630 -10.7690 95° East 612 704 35,000  Level FlightAware ADS-B
Wed 03:24:04 AM 53.8480 -10.4800 95° East 612 704 35,000  Level FlightAware ADS-B
Wed 03:24:33 AM 53.8410 -10.3380 95° East 612 704 35,000  Level FlightAware ADS-B
Wed 03:25:14 AM 53.8300 -10.1450 95° East 611 703 35,000  Level FlightAware ADS-B
Wed 03:25:43 AM 53.8220 -10.0040 95° East 610 702 35,000  Level FlightAware ADS-B
Wed 03:26:54 AM 53.8030 -9.6746 95° East 611 703 35,000  Level FlightAware ADS-B
Wed 03:27:28 AM 53.7930 -9.5110 96° East 612 704 35,000  Level FlightAware ADS-B
Wed 03:28:13 AM 53.7796 -9.2895 96° East 612 704 35,000  Level FlightAware ADS-B
Wed 03:28:45 AM 53.7701 -9.1398 96° East 612 704 35,000  Level FlightAware ADS-B
Wed 03:29:15 AM 53.7622 -9.0186 96° East 612 704 35,000  Level FlightAware ADS-B
Wed 03:29:50 AM 53.7493 -8.8270 96° East 486 559 35,000  Level FlightAware UK
Wed 03:30:17 AM 53.7420 -8.7136 96° East 611 703 35,000  Level FlightAware ADS-B
Wed 03:30:50 AM 53.7306 -8.5437 96° East 486 559 35,000  Level FlightAware UK
Wed 03:30:59 AM 53.7279 -8.5076 97° East 609 701 35,000  Level FlightAware ADS-B
Wed 03:31:20 AM 53.7204 -8.4015 97° East 486 559 35,000  Level FlightAware UK
Wed 03:31:40 AM 53.7143 -8.3147 97° East 608 700 35,000  Level FlightAware ADS-B
Wed 03:32:13 AM 53.7032 -8.1600 97° East 610 702 35,000  Level FlightAware ADS-B
Wed 03:32:50 AM 53.6908 -7.9895 97° East 609 701 35,000  Level FlightAware ADS-B
Wed 03:33:20 AM 53.6793 -7.8378 97° East 486 559 35,000  Level FlightAware UK
Wed 03:33:33 AM 53.6751 -7.7801 97° East 609 701 35,000  Level FlightAware ADS-B
Wed 03:34:12 AM 53.6613 -7.6000 97° East 609 701 35,000  Level FlightAware ADS-B
Wed 03:34:43 AM 53.6496 -7.4494 97° East 609 701 35,000  Level FlightAware ADS-B
Wed 03:35:19 AM 53.6365 -7.2834 98° East 609 701 35,000  Level FlightAware ADS-B
Wed 03:35:49 AM 53.6254 -7.1452 98° East 610 702 35,000  Level FlightAware ADS-B
Wed 03:36:21 AM 53.6128 -6.9925 98° East 486 559 35,000  Level FlightAware UK
Wed 03:36:26 AM 53.6108 -6.9665 98° East 610 702 35,000 -100 Level FlightAware ADS-B (EIDW / DUB)
Wed 03:37:21 AM 53.5892 -6.7111 98° East 488 562 34,900  Descending FlightAware UK
Wed 03:37:34 AM 53.5841 -6.6496 98° East 610 702 35,000 133 Climbing FlightAware ADS-B
Wed 03:38:06 AM 53.5712 -6.4998 98° East 609 701 35,000  Level FlightAware ADS-B
Wed 03:38:38 AM 53.5579 -6.3482 98° East 611 703 35,000  Level FlightAware ADS-B
Wed 03:38:48 AM 53.5541 -6.3047 98° East 611 703 35,000  Level FlightAware ADS-B
Wed 03:39:21 AM 53.5404 -6.1493 98° East 486 559 35,000  Level FlightAware UK
Wed 03:39:56 AM 53.5367 -5.9827 98° East 614 707 35,000  Level FlightAware ADS-B
Wed 03:40:27 AM 53.5338 -5.8371 92° East 614 707 35,000  Level FlightAware ADS-B
Wed 03:40:41 AM 53.5321 -5.7686 92° East 615 708 35,000  Level FlightAware ADS-B
Wed 03:40:50 AM 53.5311 -5.7282 92° East 614 707 35,000  Level FlightAware ADS-B
Wed 03:41:21 AM 53.5264 -5.5763 93° East 616 709 35,000  Level FlightAware ADS-B
Wed 03:41:55 AM 53.5205 -5.4154 93° East 615 708 35,000  Level FlightAware ADS-B
Wed 03:42:26 AM 53.5150 -5.2766 94° East 615 708 35,000  Level FlightAware ADS-B
Wed 03:43:05 AM 53.5079 -5.1059 94° East 616 709 35,000  Level FlightAware ADS-B
Wed 03:43:40 AM 53.4997 -4.9191 94° East 616 709 35,000  Level FlightAware ADS-B
Wed 03:44:12 AM 53.4937 -4.7856 94° East 617 710 35,000  Level FlightAware ADS-B
Wed 03:44:46 AM 53.4854 -4.5999 94° East 617 710 35,000  Level FlightAware ADS-B
Wed 03:45:20 AM 53.4781 -4.4415 94° East 617 710 35,000  Level FlightAware ADS-B
Wed 03:45:51 AM 53.4714 -4.3008 95° East 616 709 35,000  Level FlightAware ADS-B
Wed 03:46:28 AM 53.4668 -4.2057 95° East 617 710 35,000  Level FlightAware ADS-B (EPBY / BZG)
Wed 03:46:45 AM 53.4590 -4.0460 95° East 617 710 35,000  Level FlightAware ADS-B
Wed 03:47:27 AM 53.4483 -3.8350 95° East 486 559 35,000  Level FlightAware UK
Wed 03:47:44 AM 53.4522 -3.9092 95° East 616 709 35,000 -83 Level FlightAware ADS-B (EGCW)
Wed 03:48:39 AM 53.4304 -3.4925 95° East 486 559 34,900  Descending FlightAware UK
Wed 03:49:06 AM 53.4234 -3.3657 95° East 618 711 35,000 105 Climbing FlightAware ADS-B
Wed 03:49:36 AM 53.4154 -3.2231 95° East 619 712 35,000  Level FlightAware ADS-B
Wed 03:49:43 AM 53.4141 -3.1988 95° East 617 710 35,000  Level FlightAware ADS-B
Wed 03:49:51 AM 53.4121 -3.1646 95° East 618 711 35,000  Level FlightAware ADS-B
Wed 03:49:55 AM 53.4105 -3.1366 95° East 617 710 35,000  Level FlightAware ADS-B
Wed 03:49:59 AM 53.4092 -3.1143 96° East 617 710 35,000  Level FlightAware ADS-B (KAPA)
Wed 03:50:11 AM 53.4059 -3.0582 96° East 618 711 35,000  Level FlightAware ADS-B
Wed 03:50:33 AM 53.3999 -2.9546 96° East 618 711 35,000  Level FlightAware ADS-B
Wed 03:50:48 AM 53.3957 -2.8849 96° East 618 711 35,000  Level FlightAware ADS-B
Wed 03:50:59 AM 53.3931 -2.8417 96° East 617 710 35,000  Level FlightAware ADS-B
Wed 03:51:19 AM 53.3869 -2.7373 96° East 617 710 35,000  Level FlightAware ADS-B
Wed 03:51:21 AM 53.3864 -2.7293 96° East 616 709 35,000  Level FlightAware ADS-B
Wed 03:51:49 AM 53.3781 -2.5941 96° East 618 711 35,000  Level FlightAware ADS-B
Wed 03:51:51 AM 53.3783 -2.5983 275° West 618 711 35,000  Level FlightAware ADS-B
Wed 03:52:22 AM 53.3685 -2.4409 96° East 618 711 35,000  Level FlightAware ADS-B
Wed 03:52:26 AM 53.3671 -2.4186 96° East 618 711 35,000  Level FlightAware ADS-B
Wed 03:52:52 AM 53.3597 -2.3035 96° East 617 710 35,000  Level FlightAware ADS-B
Wed 03:53:13 AM 53.3552 -2.2340 96° East 616 709 35,000  Level FlightAware ADS-B
Wed 03:53:33 AM 53.3436 -2.1020 98° East 618 711 35,000  Level FlightAware ADS-B
Wed 03:53:55 AM 53.3327 -1.9972 100° East 615 708 35,000  Level FlightAware ADS-B
Wed 03:54:04 AM 53.3287 -1.9594 100° East 615 708 35,000  Level FlightAware ADS-B
Wed 03:54:09 AM 53.3260 -1.9338 100° East 614 707 35,000  Level FlightAware ADS-B (KAPA)
Wed 03:54:19 AM 53.3212 -1.8875 100° East 614 707 35,000  Level FlightAware ADS-B (KAPA)
Wed 03:54:30 AM 53.3156 -1.8348 100° East 614 707 35,000  Level FlightAware ADS-B (KAPA)
Wed 03:54:35 AM 53.3133 -1.8129 100° East 614 707 35,000  Level FlightAware ADS-B
Wed 03:55:00 AM 53.3010 -1.6943 100° East 616 709 35,000  Level FlightAware ADS-B
Wed 03:55:08 AM 53.2970 -1.6555 100° East 617 710 35,000  Level FlightAware ADS-B
Wed 03:55:25 AM 53.2901 -1.5885 100° East 617 710 35,000  Level FlightAware ADS-B
Wed 03:55:42 AM 53.2811 -1.5003 100° East 618 711 35,000  Level FlightAware ADS-B
Wed 03:56:00 AM 53.2725 -1.4153 100° East 619 712 35,000  Level FlightAware ADS-B (EGCW)
Wed 03:56:12 AM 53.2663 -1.3552 100° East 619 712 35,000  Level FlightAware ADS-B
Wed 03:56:30 AM 53.2577 -1.2711 100° East 619 712 35,000  Level FlightAware ADS-B (KAPA)
Wed 03:56:43 AM 53.2514 -1.2100 100° East 620 713 35,000  Level FlightAware ADS-B
Wed 03:56:52 AM 53.2504 -1.2001 99° East 620 713 35,000  Level FlightAware ADS-B
Wed 03:57:14 AM 53.2366 -1.0666 100° East 620 713 35,000  Level FlightAware ADS-B
Wed 03:57:22 AM 53.2329 -1.0313 100° East 620 713 35,000  Level FlightAware ADS-B
Wed 03:57:33 AM 53.2272 -0.9778 100° East 619 712 35,000  Level FlightAware ADS-B (KAPA)
Wed 03:57:52 AM 53.2174 -0.8856 100° East 619 712 35,000  Level FlightAware ADS-B (KAPA)
Wed 03:57:59 AM 53.2142 -0.8556 100° East 619 712 35,000  Level FlightAware ADS-B (KAPA)
Wed 03:58:14 AM 53.2068 -0.7861 100° East 620 713 35,000  Level FlightAware ADS-B
Wed 03:58:31 AM 53.1983 -0.7077 100° East 621 715 35,000  Level FlightAware ADS-B
Wed 03:58:57 AM 53.1844 -0.5806 100° East 621 715 35,000  Level FlightAware ADS-B
Wed 03:59:05 AM 53.1806 -0.5454 100° East 620 713 35,000  Level FlightAware ADS-B
Wed 03:59:14 AM 53.1749 -0.5016 102° East 621 715 35,000  Level FlightAware ADS-B (KAPA)
Wed 03:59:20 AM 53.1706 -0.4744 105° East 621 715 35,000  Level FlightAware ADS-B
Wed 03:59:25 AM 53.1679 -0.4578 105° East 621 715 35,000  Level FlightAware ADS-B
Wed 03:59:54 AM 53.1434 -0.3206 107° East 621 715 35,000  Level FlightAware ADS-B
Wed 03:59:55 AM 53.1434 -0.3206 180° South 621 715 35,000  Level FlightAware ADS-B
Wed 04:00:25 AM 53.1180 -0.1792 107° East 623 717 35,000  Level FlightAware ADS-B
Wed 04:00:57 AM 53.0912 -0.0330 107° East 622 716 35,000  Level FlightAware ADS-B
Wed 04:01:08 AM 53.0833 0.0098 107° East 622 716 35,000  Level FlightAware ADS-B
Wed 04:01:33 AM 53.0611 0.1314 107° East 621 715 35,000  Level FlightAware ADS-B
Wed 04:01:39 AM 53.0558 0.1601 107° East 621 715 35,000  Level FlightAware ADS-B (EGHH / BOH)
Wed 04:01:42 AM 53.0529 0.1755 107° East 618 711 35,000  Level FlightAware ADS-B (EGHH / BOH)
Wed 04:02:03 AM 53.0355 0.2690 107° East 621 715 35,000  Level FlightAware ADS-B
Wed 04:02:13 AM 53.0278 0.3108 107° East 620 713 35,000  Level FlightAware ADS-B
Wed 04:02:34 AM 53.0095 0.4090 107° East 619 712 35,000  Level FlightAware ADS-B
Wed 04:02:44 AM 53.0036 0.4407 107° East 619 712 35,000  Level FlightAware ADS-B
Wed 04:03:04 AM 52.9841 0.5455 107° East 618 711 35,000  Level FlightAware ADS-B
Wed 04:03:15 AM 52.9775 0.5807 107° East 619 712 35,000  Level FlightAware ADS-B
Wed 04:03:34 AM 52.9587 0.6813 107° East 618 711 35,000  Level FlightAware ADS-B
Wed 04:03:45 AM 52.9499 0.7282 107° East 618 711 35,000  Level FlightAware ADS-B
Wed 04:04:05 AM 52.9322 0.8209 108° East 618 711 35,000  Level FlightAware ADS-B
Wed 04:04:24 AM 52.9163 0.9050 107° East 617 710 35,000  Level FlightAware ADS-B
Wed 04:04:35 AM 52.9077 0.9572 105° East 617 710 35,000  Level FlightAware ADS-B
Wed 04:05:05 AM 52.8869 1.0940 104° East 616 709 35,000  Level FlightAware ADS-B
Wed 04:05:17 AM 52.8834 1.1168 104° East 616 709 35,000  Level FlightAware ADS-B
Wed 04:05:36 AM 52.8658 1.2320 104° East 617 710 35,000  Level FlightAware ADS-B
Wed 04:05:59 AM 52.8530 1.3349 102° East 615 708 35,000  Level FlightAware ADS-B
Wed 04:06:07 AM 52.8486 1.3741 101° East 614 707 35,000  Level FlightAware ADS-B
Wed 04:06:37 AM 52.8327 1.5128 101° East 613 705 35,000  Level FlightAware ADS-B
Wed 04:07:11 AM 52.8142 1.6690 101° East 613 705 35,000  Level FlightAware ADS-B
Wed 04:07:17 AM 52.8109 1.6960 102° East 613 705 35,000  Level FlightAware ADS-B
Wed 04:07:57 AM 52.7886 1.8779 101° East 612 704 35,000  Level FlightAware ADS-B
Wed 04:08:21 AM 52.7780 1.9612 102° East 611 703 35,000  Level FlightAware ADS-B (KAPA)
Wed 04:08:56 AM 52.7780 1.9612 102° East 611 703 35,000  Level FlightAware ADS-B
Wed 04:09:01 AM 52.7512 2.1705 102° East 488 562 35,000  Level FlightAware UK
Wed 04:09:31 AM 52.7333 2.3075 102° East 488 562 35,000  Level FlightAware UK
Wed 04:09:55 AM 52.7200 2.4140 102° East 610 702 35,000  Level FlightAware ADS-B
Wed 04:10:01 AM 52.7158 2.4436 102° East 488 562 35,000  Level FlightAware UK
Wed 04:10:28 AM 52.7000 2.5620 102° East 610 702 35,000 -167 Level FlightAware ADS-B
Wed 04:10:37 AM 52.6944 2.6066 102° East 488 562 34,900  Descending FlightAware UK
Wed 04:11:07 AM 52.6764 2.7425 102° East 488 562 35,000 105 Climbing FlightAware UK
Wed 04:11:34 AM 52.6601 2.8651 102° East 611 703 35,000  Level FlightAware ADS-B
Wed 04:12:07 AM 52.6402 3.0144 102° East 488 562 35,000  Level FlightAware UK
Wed 04:12:43 AM 52.6177 3.1781 103° East 488 562 35,000  Level FlightAware UK
Wed 04:13:04 AM 52.6060 3.2620 103° East 611 703 35,000  Level FlightAware ADS-B
Wed 04:13:31 AM 52.5876 3.3948 103° East 488 562 35,000  Level FlightAware UK
Wed 04:13:36 AM 52.5860 3.4040 103° East 609 701 35,000  Level FlightAware ADS-B
Wed 04:14:01 AM 52.5686 3.5307 103° East 490 564 35,000  Level FlightAware UK
Wed 04:14:13 AM 52.5590 3.5790 103° East 609 701 35,000  Level FlightAware ADS-B
Wed 04:14:31 AM 52.5437 3.6627 103° East 488 562 35,000  Level FlightAware UK
Wed 04:14:49 AM 52.5290 3.7390 103° East 608 700 35,000  Level FlightAware ADS-B
Wed 04:15:07 AM 52.5139 3.8213 103° East 486 559 35,000  Level FlightAware UK
Wed 04:15:27 AM 52.4980 3.9050 103° East 610 702 35,000  Level FlightAware ADS-B
Wed 04:15:37 AM 52.4889 3.9535 103° East 488 562 35,000  Level FlightAware UK
Wed 04:16:03 AM 52.4690 4.0590 103° East 609 701 35,000  Level FlightAware ADS-B
Wed 04:16:19 AM 52.4544 4.1385 103° East 488 562 35,000  Level FlightAware UK
Wed 04:16:43 AM 52.4340 4.2400 108° East 609 701 35,000  Level FlightAware ADS-B
Wed 04:17:25 AM 52.3981 4.4278 108° East 488 562 35,000  Level FlightAware UK
Wed 04:17:43 AM 52.3840 4.5000 107° East 606 697 35,000  Level FlightAware ADS-B
Wed 04:18:08 AM 52.3628 4.6122 107° East 490 564 35,000  Level FlightAware UK
Wed 04:18:38 AM 52.3381 4.7429 107° East 490 564 35,000  Level FlightAware UK
Wed 04:18:45 AM 52.3370 4.7764 107° East 603 694 35,000  Level FlightAware ADS-B
Wed 04:19:38 AM 52.3059 5.0111 102° East 600 690 35,000  Level FlightAware ADS-B
Wed 04:20:10 AM 52.2881 5.1534 102° East 599 689 35,000  Level FlightAware ADS-B
Wed 04:20:48 AM 52.2690 5.3090 102° East 597 687 35,000  Level FlightAware ADS-B
Wed 04:20:50 AM 52.2653 5.3264 102° East 492 566 35,000  Level FlightAware UK
Wed 04:21:17 AM 52.2525 5.4376 102° East 595 685 35,000  Level FlightAware ADS-B
Wed 04:21:26 AM 52.2432 5.4830 102° East 490 564 35,000 -154 Level FlightAware UK
Wed 04:21:56 AM 52.2307 5.6167 102° East 490 564 34,900  Descending FlightAware UK
Wed 04:21:59 AM 52.2300 5.6200 101° East 594 684 35,000  Climbing FlightAware ADS-B
Wed 04:22:26 AM 52.2143 5.7489 101° East 490 564 34,900  Descending FlightAware UK
Wed 04:22:56 AM 52.1986 5.8643 102° East 593 682 35,000 81 Climbing FlightAware ADS-B
Wed 04:23:40 AM 52.1730 6.0640 102° East 591 680 35,000  Level FlightAware ADS-B
Wed 04:24:39 AM 52.1390 6.3240 102° East 591 680 35,000  Level FlightAware ADS-B
Wed 04:25:15 AM 52.1180 6.4790 102° East 590 679 35,000  Level FlightAware ADS-B
Wed 04:26:04 AM 52.0900 6.6860 102° East 591 680 35,000  Level FlightAware ADS-B
Wed 04:26:49 AM 52.0630 6.8870 102° East 591 680 35,000  Level FlightAware ADS-B
Wed 04:27:29 AM 52.0390 7.0600 103° East 591 680 35,000  Level FlightAware ADS-B
Wed 04:28:27 AM 52.0030 7.3120 103° East 590 679 35,000  Level FlightAware ADS-B
Wed 04:29:10 AM 51.9780 7.4870 103° East 590 679 35,000  Level FlightAware ADS-B
Wed 04:29:49 AM 51.9530 7.6650 103° East 589 678 35,000  Level FlightAware ADS-B
Wed 04:30:45 AM 51.9201 7.8883 103° East 590 679 35,000  Level FlightAware ADS-B
Wed 04:31:17 AM 51.8982 8.0359 103° East 590 679 35,000  Level FlightAware ADS-B
Wed 04:31:48 AM 51.8788 8.1657 104° East 591 680 35,000  Level FlightAware ADS-B
Wed 04:32:20 AM 51.8579 8.3091 103° East 590 679 35,000  Level FlightAware ADS-B
Wed 04:33:00 AM 51.8378 8.4836 100° East 585 673 35,000  Level FlightAware ADS-B
Wed 04:33:41 AM 51.8210 8.6590 99° East 583 671 35,000  Level FlightAware ADS-B
Wed 04:34:30 AM 51.8033 8.8605 98° East 582 670 35,000  Level FlightAware ADS-B
Wed 04:35:00 AM 51.7920 8.9850 98° East 581 669 35,000  Level FlightAware ADS-B
Wed 04:35:32 AM 51.7790 9.1320 98° East 580 667 35,000  Level FlightAware ADS-B
Wed 04:36:13 AM 51.7640 9.3070 98° East 581 669 35,000  Level FlightAware ADS-B
Wed 04:37:12 AM 51.7410 9.5600 98° East 583 671 35,000  Level FlightAware ADS-B
Wed 04:37:45 AM 51.7290 9.6980 98° East 582 670 35,000  Level FlightAware ADS-B
Wed 04:38:24 AM 51.7130 9.8650 99° East 581 669 35,000  Level FlightAware ADS-B
Wed 04:38:52 AM 51.7020 9.9840 98° East 584 672 35,000  Level FlightAware ADS-B
Wed 04:39:41 AM 51.6820 10.1930 99° East 585 673 35,000  Level FlightAware ADS-B
Wed 04:40:16 AM 51.6670 10.3480 99° East 585 673 35,000  Level FlightAware ADS-B
Wed 04:40:49 AM 51.6540 10.4850 99° East 583 671 35,000  Level FlightAware ADS-B
Wed 04:41:30 AM 51.6360 10.6650 99° East 581 669 35,000  Level FlightAware ADS-B
Wed 04:42:10 AM 51.6180 10.8350 100° East 580 667 35,000  Level FlightAware ADS-B
Wed 04:42:51 AM 51.6010 11.0040 99° East 583 671 35,000  Level FlightAware ADS-B
Wed 04:43:24 AM 51.5870 11.1420 99° East 584 672 35,000  Level FlightAware ADS-B
Wed 04:44:05 AM 51.5680 11.3210 100° East 587 676 35,000  Level FlightAware ADS-B
Wed 04:44:37 AM 51.5520 11.4700 100° East 591 680 35,000  Level FlightAware ADS-B
Wed 04:45:06 AM 51.5390 11.5890 100° East 593 682 35,000  Level FlightAware ADS-B
Wed 04:45:49 AM 51.5180 11.7760 100° East 593 682 35,000  Level FlightAware ADS-B
Wed 04:46:28 AM 51.4990 11.9480 100° East 590 679 35,000  Level FlightAware ADS-B
Wed 04:47:03 AM 51.4830 12.0930 100° East 590 679 35,000  Level FlightAware ADS-B
Wed 04:47:37 AM 51.4650 12.2440 101° East 588 677 35,000  Level FlightAware ADS-B
Wed 04:48:14 AM 51.4480 12.3930 100° East 588 677 35,000  Level FlightAware ADS-B
Wed 04:48:51 AM 51.4230 12.5420 105° East 600 690 35,000  Level FlightAware ADS-B
Wed 04:49:32 AM 51.3640 12.7160 118° Southeast 608 700 35,000  Level FlightAware ADS-B
Wed 04:50:44 AM 51.2550 12.9880 123° Southeast 609 701 35,000  Level FlightAware ADS-B
Wed 04:51:08 AM 51.2190 13.0770 123° Southeast 608 700 35,000  Level FlightAware ADS-B
Wed 04:51:44 AM 51.1660 13.2060 123° Southeast 607 699 35,000  Level FlightAware ADS-B
Wed 04:52:21 AM 51.1070 13.3490 123° Southeast 603 694 35,000  Level FlightAware ADS-B
Wed 04:52:57 AM 51.0550 13.4770 123° Southeast 601 692 35,000  Level FlightAware ADS-B
Wed 04:53:30 AM 51.0030 13.6030 123° Southeast 599 689 35,000  Level FlightAware ADS-B
Wed 04:54:00 AM 50.9570 13.7140 123° Southeast 598 688 35,000  Level FlightAware ADS-B
Wed 04:54:39 AM 50.8980 13.8570 123° Southeast 596 686 35,000  Level FlightAware ADS-B
Wed 04:55:42 AM 50.7870 14.0734 129° Southeast 598 688 35,000  Level FlightAware ADS-B
Wed 04:56:27 AM 50.7059 14.2178 132° Southeast 597 687 35,000  Level FlightAware ADS-B
Wed 04:57:23 AM 50.6049 14.4011 131° Southeast 595 685 35,000  Level FlightAware ADS-B
Wed 04:58:01 AM 50.5361 14.5271 131° Southeast 592 681 35,000  Level FlightAware ADS-B
Wed 04:58:33 AM 50.4841 14.6224 131° Southeast 592 681 35,000  Level FlightAware ADS-B
Wed 04:59:03 AM 50.4305 14.7207 131° Southeast 593 682 35,000  Level FlightAware ADS-B
Wed 04:59:34 AM 50.3745 14.8225 131° Southeast 595 685 35,000  Level FlightAware ADS-B
Wed 05:00:10 AM 50.3080 14.9433 131° Southeast 596 686 35,000  Level FlightAware ADS-B
Wed 05:00:52 AM 50.2330 15.0790 131° Southeast 594 684 35,000  Level FlightAware ADS-B
Wed 05:01:57 AM 50.1335 15.3133 123° Southeast 584 672 35,000  Level FlightAware ADS-B (KTRL)
Wed 05:02:30 AM 50.0914 15.4325 119° Southeast 580 667 35,000  Level FlightAware ADS-B (KTRL)
Wed 05:03:01 AM 50.0517 15.5457 119° Southeast 579 666 35,000  Level FlightAware ADS-B (KTRL)
Wed 05:03:35 AM 50.0149 15.6500 119° Southeast 575 662 35,000  Level FlightAware ADS-B (KTRL)
Wed 05:04:15 AM 49.9587 15.8081 119° Southeast 571 657 35,000  Level FlightAware ADS-B (KTRL)
Wed 05:04:45 AM 49.9231 15.9077 119° Southeast 571 657 35,000  Level FlightAware ADS-B (KTRL)
Wed 05:05:15 AM 49.8812 16.0245 119° Southeast 569 655 35,000  Level FlightAware ADS-B (KTRL)
Wed 05:05:51 AM 49.8363 16.1486 119° Southeast 566 651 35,000  Level FlightAware ADS-B (KTRL)
Wed 05:06:21 AM 49.7977 16.2547 119° Southeast 566 651 35,000  Level FlightAware ADS-B (KTRL)
Wed 05:06:55 AM 49.7563 16.3683 119° Southeast 568 654 35,000  Level FlightAware ADS-B (KTRL)
Wed 05:07:25 AM 49.7151 16.4809 119° Southeast 570 656 35,000  Level FlightAware ADS-B (KTRL)
Wed 05:07:57 AM 49.6721 16.5979 120° Southeast 569 655 35,000  Level FlightAware ADS-B (KTRL)
Wed 05:08:05 AM 49.6620 16.6272 118° Southeast 571 657 35,000  Level FlightAware ADS-B
Wed 05:08:33 AM 49.6551 16.6494 115° Southeast 565 650 35,000  Level FlightAware ADS-B
Wed 05:09:28 AM 49.5881 16.9403 109° East 560 644 35,000  Level FlightAware ADS-B (KTRL)
Wed 05:09:58 AM 49.5653 17.0555 107° East 561 646 35,000  Level FlightAware ADS-B (KTRL)
Wed 05:11:00 AM 49.5176 17.2941 107° East 565 650 35,000  Level FlightAware ADS-B (KTRL)
Wed 05:11:58 AM 49.4773 17.5029 106° East 568 654 35,000  Level FlightAware ADS-B (KTRL)
Wed 05:12:55 AM 49.4324 17.7332 107° East 564 649 35,000  Level FlightAware ADS-B (KTRL)
Wed 05:13:25 AM 49.4103 17.8479 106° East 560 644 35,000  Level FlightAware ADS-B (KTRL)
Wed 05:13:57 AM 49.3835 17.9677 109° East 564 649 35,000  Level FlightAware ADS-B (KTRL)
Wed 05:14:27 AM 49.3495 18.0790 115° Southeast 566 651 35,000  Level FlightAware ADS-B (KTRL)
Wed 05:14:59 AM 49.3072 18.1874 121° Southeast 561 646 35,000  Level FlightAware ADS-B (KTRL)
Wed 05:15:38 AM 49.2525 18.3201 122° Southeast 562 647 35,000  Level FlightAware ADS-B (KTRL)
Wed 05:16:10 AM 49.2083 18.4263 122° Southeast 560 644 35,000  Level FlightAware ADS-B (KTRL)
Wed 05:17:01 AM 49.1382 18.5949 122° Southeast 561 646 35,000  Level FlightAware ADS-B (KTRL)
Wed 05:17:31 AM 49.1006 18.6849 122° Southeast 558 642 35,000  Level FlightAware ADS-B (KTRL)
Wed 05:18:03 AM 49.0517 18.8018 123° Southeast 556 640 35,000  Level FlightAware ADS-B (KTRL)
Wed 05:18:34 AM 49.0102 18.9009 123° Southeast 555 639 35,000  Level FlightAware ADS-B (KTRL)
Wed 05:19:04 AM 48.9671 19.0028 123° Southeast 555 639 35,000  Level FlightAware ADS-B (KTRL)
Wed 05:19:34 AM 48.9257 19.1007 123° Southeast 552 635 35,000  Level FlightAware ADS-B (KTRL)
Wed 05:20:09 AM 48.8831 19.2007 123° Southeast 555 639 35,000  Level FlightAware ADS-B (KTRL)
Wed 05:20:40 AM 48.8363 19.3098 123° Southeast 556 640 35,000  Level FlightAware ADS-B (KTRL)
Wed 05:21:14 AM 48.7860 19.4272 123° Southeast 552 635 35,000  Level FlightAware ADS-B (KTRL)
Wed 05:21:44 AM 48.7452 19.5215 123° Southeast 552 635 35,000  Level FlightAware ADS-B (KTRL)
Wed 05:22:17 AM 48.6996 19.6276 123° Southeast 554 638 35,000  Level FlightAware ADS-B (KTRL)
Wed 05:22:56 AM 48.6451 19.7529 123° Southeast 552 635 35,000  Level FlightAware ADS-B (KTRL)
Wed 05:23:28 AM 48.5990 19.8584 123° Southeast 552 635 35,000  Level FlightAware ADS-B (KTRL)
Wed 05:24:18 AM 48.5287 20.0189 123° Southeast 550 633 35,000  Level FlightAware ADS-B (KTRL)
Wed 05:24:49 AM 48.4851 20.1177 124° Southeast 550 633 35,000  Level FlightAware ADS-B (KTRL)
Wed 05:25:19 AM 48.4435 20.2117 124° Southeast 549 632 35,000  Level FlightAware ADS-B (KTRL)
Wed 05:25:50 AM 48.4028 20.3030 124° Southeast 548 631 35,000  Level FlightAware ADS-B (KTRL)
Wed 05:26:21 AM 48.3596 20.3994 124° Southeast 548 631 35,000  Level FlightAware ADS-B (KTRL)
Wed 05:27:01 AM 48.3000 20.5318 124° Southeast 547 629 35,000  Level FlightAware ADS-B (KTRL)
Wed 05:27:56 AM 48.2263 20.6939 124° Southeast 544 626 35,000  Level FlightAware ADS-B (KTRL)
Wed 05:28:46 AM 48.1530 20.8550 124° Southeast 543 625 35,000  Level FlightAware ADS-B
Wed 05:29:11 AM 48.1151 20.9379 124° Southeast 544 626 35,000  Level FlightAware ADS-B (KTRL)
Wed 05:29:54 AM 48.0550 21.0680 125° Southeast 542 624 35,000  Level FlightAware ADS-B
Wed 05:30:41 AM 47.9910 21.2080 124° Southeast 540 621 35,000  Level FlightAware ADS-B
Wed 05:31:26 AM 47.9260 21.3470 125° Southeast 537 618 35,000  Level FlightAware ADS-B
Wed 05:32:11 AM 47.8610 21.4860 125° Southeast 535 616 35,000  Level FlightAware ADS-B
Wed 05:32:55 AM 47.8000 21.6170 125° Southeast 535 616 35,000  Level FlightAware ADS-B
Wed 05:33:30 AM 47.7490 21.7250 125° Southeast 532 612 35,000  Level FlightAware ADS-B
Wed 05:34:25 AM 48.0697 21.0368 305° West 541 623 35,000  Level FlightAware ADS-B (KTRL)
Wed 05:35:36 AM 47.5720 22.0980 123° Southeast 526 605 35,000  Level FlightAware ADS-B
Wed 05:36:00 AM 47.9383 21.3418 123° Southeast  Level Estimated
Wed 05:36:17 AM 47.5180 22.2160 124° Southeast 525 604 35,000  Level FlightAware ADS-B
Wed 05:36:56 AM 47.4670 22.3400 121° Southeast 522 601 35,000  Level FlightAware ADS-B
Wed 05:37:32 AM 47.4230 22.4510 120° Southeast 523 602 35,000 188 Level FlightAware ADS-B
Wed 05:38:00 AM 47.3900 22.5370 120° Southeast 525 604 35,200 909 Climbing FlightAware ADS-B
Wed 05:38:38 AM 47.3440 22.6550 120° Southeast 524 603 36,000 1,024 Climbing FlightAware ADS-B
Wed 05:39:22 AM 47.2920 22.7900 120° Southeast 532 612 36,600 667 Climbing FlightAware ADS-B
Wed 05:39:59 AM 47.2470 22.9040 120° Southeast 536 617 36,900 343 Climbing FlightAware ADS-B
Wed 05:40:32 AM 47.2060 23.0090 120° Southeast 534 615 37,000 70 Climbing FlightAware ADS-B
Wed 05:41:25 AM 47.1390 23.1790 120° Southeast 532 612 37,000  Level FlightAware ADS-B
Wed 05:42:10 AM 47.0840 23.3160 120° Southeast 529 609 37,000  Level FlightAware ADS-B
Wed 05:42:45 AM 47.0400 23.4250 121° Southeast 529 609 37,000  Level FlightAware ADS-B
Wed 05:43:22 AM 46.9960 23.5340 121° Southeast 529 609 37,000  Level FlightAware ADS-B
Wed 05:43:57 AM 46.9510 23.6470 120° Southeast 526 605 37,000  Level FlightAware ADS-B
Wed 05:44:46 AM 46.8910 23.7950 121° Southeast 520 598 37,000  Level FlightAware ADS-B
Wed 05:45:26 AM 46.8420 23.9150 121° Southeast 519 597 37,000  Level FlightAware ADS-B
Wed 05:46:11 AM 46.7860 24.0510 121° Southeast 518 596 37,000  Level FlightAware ADS-B
Wed 05:46:50 AM 46.7390 24.1660 121° Southeast 516 594 37,000  Level FlightAware ADS-B
Wed 05:47:35 AM 46.6830 24.3010 121° Southeast 515 593 37,000  Level FlightAware ADS-B
Wed 05:48:10 AM 46.6400 24.4040 121° Southeast 515 593 37,000  Level FlightAware ADS-B
Wed 05:48:47 AM 46.5950 24.5120 121° Southeast 513 590 37,000  Level FlightAware ADS-B
Wed 05:49:24 AM 46.5490 24.6210 122° Southeast 507 583 37,000  Level FlightAware ADS-B
Wed 05:50:04 AM 46.5020 24.7340 121° Southeast 505 581 37,000  Level FlightAware ADS-B
Wed 05:50:42 AM 46.4550 24.8450 122° Southeast 503 579 37,000  Level FlightAware ADS-B
Wed 05:51:27 AM 46.4000 24.9740 122° Southeast 497 572 37,000  Level FlightAware ADS-B
Wed 05:52:02 AM 46.3580 25.0740 121° Southeast 500 575 37,000  Level FlightAware ADS-B
Wed 05:52:48 AM 46.3020 25.2050 122° Southeast 507 583 37,000  Level FlightAware ADS-B
Wed 05:53:27 AM 46.2530 25.3180 122° Southeast 510 587 37,000  Level FlightAware ADS-B
Wed 05:54:08 AM 46.2030 25.4350 122° Southeast 511 588 37,000  Level FlightAware ADS-B
Wed 05:54:40 AM 46.1610 25.5300 123° Southeast 512 589 37,000  Level FlightAware ADS-B
Wed 05:55:28 AM 46.1000 25.6660 123° Southeast 514 592 37,000  Level FlightAware ADS-B
Wed 05:56:05 AM 46.0540 25.7720 122° Southeast 515 593 37,000  Level FlightAware ADS-B
Wed 05:56:46 AM 46.0020 25.8910 122° Southeast 508 585 37,000  Level FlightAware ADS-B
Wed 05:57:22 AM 45.9570 25.9940 122° Southeast 505 581 37,000  Level FlightAware ADS-B
Wed 05:57:56 AM 46.1500 25.5544 302° West 505 581 37,000  Level FlightAware ADS-B
Wed 05:58:34 AM 45.8690 26.2010 122° Southeast 504 580 37,000  Level FlightAware ADS-B
Wed 05:59:22 AM 45.8110 26.3350 122° Southeast 502 578 37,000  Level FlightAware ADS-B
Wed 06:00:01 AM 45.7640 26.4450 121° Southeast 501 577 37,000  Level FlightAware ADS-B
Wed 06:00:33 AM 45.7240 26.5360 122° Southeast 502 578 37,000  Level FlightAware ADS-B
Wed 06:01:02 AM 45.6890 26.6170 122° Southeast 504 580 37,000  Level FlightAware ADS-B
Wed 06:01:37 AM 45.6460 26.7150 122° Southeast 508 585 37,000  Level FlightAware ADS-B
Wed 06:02:23 AM 45.5900 26.8475 121° Southeast 503 579 37,000  Level FlightAware ADS-B
Wed 06:03:02 AM 45.5421 26.9591 127° Southeast 497 572 37,000  Level FlightAware ADS-B
Wed 06:03:33 AM 45.5060 27.0440 121° Southeast 495 570 37,000  Level FlightAware ADS-B
Wed 06:04:00 AM 45.4395 27.1284 127° Southeast  Level Estimated
Wed 06:04:13 AM 45.4590 27.1520 122° Southeast 494 568 37,000  Level FlightAware ADS-B
Wed 06:05:11 AM 45.3890 27.3140 122° Southeast 491 565 37,000  Level FlightAware ADS-B
Wed 06:06:18 AM 45.3120 27.4980 121° Southeast 490 564 37,000  Level FlightAware ADS-B
Wed 06:06:42 AM 45.2840 27.5650 121° Southeast 487 560 37,000  Level FlightAware ADS-B
Wed 06:07:18 AM 45.2410 27.6640 122° Southeast 487 560 37,000  Level FlightAware ADS-B
Wed 06:08:18 AM 45.1710 27.8260 121° Southeast 484 557 37,000  Level FlightAware ADS-B
Wed 06:09:03 AM 45.1150 27.9450 124° Southeast 480 552 37,000  Level FlightAware ADS-B
Wed 06:09:54 AM 45.0510 28.0760 125° Southeast 478 550 37,000  Level FlightAware ADS-B
Wed 06:10:38 AM 44.9960 28.1890 125° Southeast 479 551 37,000  Level FlightAware ADS-B
Wed 06:11:19 AM 44.9440 28.2940 125° Southeast 481 554 37,000  Level FlightAware ADS-B
Wed 06:11:39 AM 44.9180 28.3450 126° Southeast 483 556 37,000  Level FlightAware ADS-B
Wed 06:12:24 AM 44.8630 28.4550 125° Southeast 486 559 37,000  Level FlightAware ADS-B
Wed 06:13:27 AM 44.7810 28.6190 125° Southeast 488 562 37,000  Level FlightAware ADS-B
Wed 06:14:30 AM 44.6990 28.7820 125° Southeast 486 559 37,000  Level FlightAware ADS-B
Wed 06:15:18 AM 44.6370 28.9050 125° Southeast 485 558 37,000  Level FlightAware ADS-B
Wed 06:15:50 AM 44.5960 28.9860 125° Southeast 486 559 37,000  Level FlightAware ADS-B
Wed 06:16:18 AM 44.5600 29.0570 125° Southeast 485 558 37,000  Level FlightAware ADS-B
Wed 06:16:57 AM 44.5070 29.1610 126° Southeast 483 556 37,000  Level FlightAware ADS-B
Wed 06:17:39 AM 44.4530 29.2660 126° Southeast 484 557 37,000  Level FlightAware ADS-B
Wed 06:18:18 AM 44.4000 29.3680 126° Southeast 485 558 37,000  Level FlightAware ADS-B
Wed 06:18:50 AM 44.3600 29.4460 126° Southeast 486 559 37,000  Level FlightAware ADS-B
Wed 06:19:29 AM 44.3200 29.5260 125° Southeast 486 559 37,000  Level FlightAware ADS-B
Wed 06:19:59 AM 44.2730 29.6150 126° Southeast 486 559 37,000  Level FlightAware ADS-B
Wed 06:20:59 AM 44.1950 29.7640 126° Southeast 488 562 37,000  Level FlightAware ADS-B
Wed 06:21:40 AM 44.1390 29.8720 126° Southeast 489 563 37,000  Level FlightAware ADS-B
Wed 06:22:17 AM 44.0860 29.9720 126° Southeast 488 562 37,000  Level FlightAware ADS-B
Wed 06:22:48 AM 44.0430 30.0550 126° Southeast 487 560 37,000  Level FlightAware ADS-B
Wed 06:23:27 AM 43.9920 30.1510 126° Southeast 487 560 37,000  Level FlightAware ADS-B
Wed 06:24:02 AM 43.9460 30.2370 127° Southeast 488 562 37,000  Level FlightAware ADS-B
Wed 06:24:28 AM 43.9110 30.3040 126° Southeast 485 558 37,000  Level FlightAware ADS-B
Wed 06:25:03 AM 43.8690 30.3830 126° Southeast 485 558 37,000  Level FlightAware ADS-B
Wed 06:25:48 AM 43.8070 30.5080 124° Southeast 492 566 37,000  Level FlightAware ADS-B
Wed 06:26:18 AM 43.7800 30.5940 113° Southeast 497 572 37,000  Level FlightAware ADS-B
Wed 06:26:58 AM 43.7520 30.7010 110° East 499 574 37,000  Level FlightAware ADS-B
Wed 06:27:38 AM 43.7180 30.8340 109° East 499 574 37,000  Level FlightAware ADS-B
Wed 06:28:33 AM 43.6760 30.9950 110° East 501 577 37,000  Level FlightAware ADS-B
Wed 06:29:13 AM 43.6430 31.1170 110° East 499 574 37,000  Level FlightAware ADS-B
Wed 06:29:48 AM 43.6140 31.2200 111° Southeast 500 575 37,000  Level FlightAware ADS-B
Wed 06:30:48 AM 43.5650 31.4000 111° Southeast 502 578 37,000  Level FlightAware ADS-B
Wed 06:31:13 AM 43.5430 31.4760 112° Southeast 502 578 37,000  Level FlightAware ADS-B
Wed 06:31:58 AM 43.5080 31.6050 110° East 502 578 37,000  Level FlightAware ADS-B
Wed 06:33:03 AM 43.4520 31.8010 111° Southeast 501 577 37,000  Level FlightAware ADS-B
Wed 06:33:43 AM 43.4150 31.9200 113° Southeast 501 577 37,000  Level FlightAware ADS-B
Wed 06:34:18 AM 43.3840 32.0220 113° Southeast 499 574 37,000  Level FlightAware ADS-B
Wed 06:34:53 AM 43.3520 32.1230 114° Southeast 497 572 37,000  Level FlightAware ADS-B
Wed 06:35:58 AM 43.2940 32.3140 113° Southeast 500 575 37,000  Level FlightAware ADS-B
Wed 06:36:38 AM 43.2620 32.4310 111° Southeast 501 577 37,000  Level FlightAware ADS-B
Wed 06:37:18 AM 43.2310 32.5510 109° East 503 579 37,000  Level FlightAware ADS-B
Wed 06:37:48 AM 43.2070 32.6410 110° East 502 578 37,000  Level FlightAware ADS-B
Wed 06:38:58 AM 43.1510 32.8500 110° East 502 578 37,000  Level FlightAware ADS-B
Wed 06:39:43 AM 43.1160 32.9810 110° East 503 579 37,000  Level FlightAware ADS-B
Wed 06:40:23 AM 43.0810 33.1000 112° Southeast 502 578 37,000  Level FlightAware ADS-B
Wed 06:41:03 AM 43.0450 33.2180 113° Southeast 503 579 37,000  Level FlightAware ADS-B
Wed 06:41:38 AM 43.0140 33.3210 112° Southeast 504 580 37,000  Level FlightAware ADS-B
Wed 06:42:38 AM 42.9610 33.4970 112° Southeast 507 583 37,000  Level FlightAware ADS-B
Wed 06:43:08 AM 42.9340 33.5860 112° Southeast 508 585 37,000  Level FlightAware ADS-B
Wed 06:44:03 AM 42.8840 33.7490 113° Southeast 508 585 37,000  Level FlightAware ADS-B
Wed 06:44:38 AM 42.8530 33.8530 112° Southeast 510 587 37,000  Level FlightAware ADS-B
Wed 06:45:18 AM 42.8170 33.9690 113° Southeast 509 586 37,000  Level FlightAware ADS-B
Wed 06:45:58 AM 42.7750 34.0830 117° Southeast 501 577 37,000  Level FlightAware ADS-B
Wed 06:46:38 AM 42.7140 34.1760 132° Southeast 495 570 37,000  Level FlightAware ADS-B
Wed 06:46:53 AM 42.6930 34.2040 136° Southeast 495 570 37,000  Level FlightAware ADS-B
Wed 06:47:44 AM 42.6180 34.3050 135° Southeast 496 571 37,000  Level FlightAware ADS-B
Wed 06:48:32 AM 42.5520 34.3950 135° Southeast 496 571 37,000  Level FlightAware ADS-B
Wed 06:48:56 AM 42.5190 34.4390 135° Southeast 496 571 37,000  Level FlightAware ADS-B
Wed 06:49:45 AM 42.4510 34.5310 135° Southeast 496 571 37,000  Level FlightAware ADS-B
Wed 06:50:10 AM 42.4160 34.5780 135° Southeast 496 571 37,000  Level FlightAware ADS-B
Wed 06:50:58 AM 42.3500 34.6670 135° Southeast 496 571 37,000  Level FlightAware ADS-B
Wed 06:51:22 AM 42.3170 34.7120 135° Southeast 496 571 37,000  Level FlightAware ADS-B
Wed 06:51:58 AM 42.2670 34.7790 135° Southeast 496 571 37,000  Level FlightAware ADS-B
Wed 06:53:14 AM 42.0700 35.0160 138° Southeast 500 575 37,000  Level FlightAware ADS-B
Wed 06:54:14 AM 41.9850 35.1260 136° Southeast 500 575 37,000  Level FlightAware ADS-B
Wed 06:54:51 AM 41.9330 35.1940 136° Southeast 500 575 37,000  Level FlightAware ADS-B
Wed 06:55:27 AM 41.8820 35.2600 136° Southeast 500 575 37,000  Level FlightAware ADS-B
Wed 06:56:03 AM 41.8310 35.3260 136° Southeast 500 575 37,000  Level FlightAware ADS-B
Wed 06:56:39 AM 41.7800 35.3920 136° Southeast 500 575 37,000  Level FlightAware ADS-B
Wed 06:57:15 AM 41.7290 35.4580 136° Southeast 500 575 37,000  Level FlightAware ADS-B
Wed 06:57:51 AM 41.6780 35.5240 136° Southeast 500 575 37,000  Level FlightAware ADS-B
Wed 06:58:27 AM 41.6270 35.5900 136° Southeast 500 575 37,000  Level FlightAware ADS-B
Wed 06:59:03 AM 41.5770 35.6560 135° Southeast 500 575 37,000  Level FlightAware ADS-B
Wed 06:59:28 AM 41.5410 35.7010 137° Southeast 500 575 37,000  Level FlightAware ADS-B
Wed 07:00:41 AM 41.4380 35.8340 136° Southeast 500 575 37,000  Level FlightAware ADS-B
Wed 07:01:17 AM 41.3870 35.9000 136° Southeast 500 575 37,000  Level FlightAware ADS-B
Wed 07:01:54 AM 41.3350 35.9670 136° Southeast 500 575 37,000  Level FlightAware ADS-B
Wed 07:02:31 AM 41.2820 36.0340 136° Southeast 500 575 37,000  Level FlightAware ADS-B
Wed 07:05:00 AM 41.0059 36.3819 136° Southeast  Level Estimated
Wed 07:06:00 AM 40.8944 36.5211 137° Southeast  Level Estimated
Wed 07:07:00 AM 40.7828 36.6599 137° Southeast  Level Estimated
Wed 07:08:00 AM 40.6710 36.7983 137° Southeast  Level Estimated
Wed 07:09:00 AM 40.5590 36.9361 137° Southeast  Level Estimated
Wed 07:10:00 AM 40.4468 37.0735 137° Southeast  Level Estimated
Wed 07:11:00 AM 40.3345 37.2105 137° Southeast  Level Estimated
Wed 07:12:00 AM 40.2221 37.3470 137° Southeast  Level Estimated
Wed 07:13:00 AM 40.1095 37.4830 137° Southeast  Level Estimated
Wed 07:14:00 AM 39.9967 37.6186 137° Southeast  Level Estimated
Wed 07:15:00 AM 39.8837 37.7537 137° Southeast  Level Estimated
Wed 07:16:00 AM 39.7706 37.8884 138° Southeast  Level Estimated
Wed 07:17:00 AM 39.6574 38.0227 138° Southeast  Level Estimated
Wed 07:18:00 AM 39.5440 38.1565 138° Southeast  Level Estimated
Wed 07:19:00 AM 39.4304 38.2899 138° Southeast  Level Estimated
Wed 07:20:00 AM 39.3167 38.4228 138° Southeast  Level Estimated
Wed 07:21:00 AM 39.2029 38.5553 138° Southeast  Level Estimated
Wed 07:22:00 AM 39.0888 38.6874 138° Southeast  Level Estimated
Wed 07:23:00 AM 38.9747 38.8191 138° Southeast  Level Estimated
Wed 07:24:00 AM 38.8604 38.9503 138° Southeast  Level Estimated
Wed 07:25:00 AM 38.7459 39.0811 138° Southeast  Level Estimated
Wed 07:25:17 AM 39.4430 39.9860 138° Southeast 531 611 37,000  Level FlightAware ADS-B
Wed 07:25:52 AM 39.3940 40.0710 127° Southeast 532 612 37,000  Level FlightAware ADS-B
Wed 07:26:19 AM 39.3550 40.1360 128° Southeast 534 615 37,000  Level FlightAware ADS-B
Wed 07:27:12 AM 39.2730 40.2770 127° Southeast 536 617 37,000  Level FlightAware ADS-B
Wed 07:27:57 AM 39.2050 40.3920 127° Southeast 533 613 37,000  Level FlightAware ADS-B
Wed 07:28:39 AM 39.1480 40.4890 127° Southeast 534 615 37,000  Level FlightAware ADS-B
Wed 07:29:04 AM 39.1160 40.5430 127° Southeast 534 615 37,000  Level FlightAware ADS-B
Wed 07:29:53 AM 39.0540 40.6490 127° Southeast 534 615 37,000  Level FlightAware ADS-B
Wed 07:30:17 AM 39.0240 40.7000 127° Southeast 534 615 37,000  Level FlightAware ADS-B
Wed 07:30:53 AM 38.9780 40.7780 127° Southeast 534 615 37,000  Level FlightAware ADS-B
Wed 07:31:29 AM 38.9330 40.8560 127° Southeast 534 615 37,000  Level FlightAware ADS-B
Wed 07:32:05 AM 38.8870 40.9330 127° Southeast 534 615 37,000  Level FlightAware ADS-B
Wed 07:32:43 AM 38.8390 41.0150 127° Southeast 534 615 37,000  Level FlightAware ADS-B
Wed 07:33:19 AM 38.7940 41.0930 126° Southeast 534 615 37,000  Level FlightAware ADS-B
Wed 07:33:55 AM 38.7480 41.1700 127° Southeast 534 615 37,000  Level FlightAware ADS-B
Wed 07:34:33 AM 38.7000 41.2520 127° Southeast 534 615 37,000  Level FlightAware ADS-B
Wed 07:35:09 AM 38.6550 41.3290 127° Southeast 534 615 37,000  Level FlightAware ADS-B
Wed 07:35:57 AM 38.5940 41.4320 127° Southeast 534 615 37,000  Level FlightAware ADS-B
Wed 07:36:33 AM 38.5490 41.5090 127° Southeast 534 615 37,000  Level FlightAware ADS-B
Wed 07:37:09 AM 38.5030 41.5860 127° Southeast 534 615 37,000  Level FlightAware ADS-B
Wed 07:37:57 AM 38.4420 41.6890 127° Southeast 534 615 37,000  Level FlightAware ADS-B
Wed 07:38:09 AM 38.4270 41.7150 126° Southeast 534 615 37,000  Level FlightAware ADS-B
Wed 07:41:00 AM 38.0695 42.0347 145° Southeast  Level Estimated
Wed 07:42:00 AM 37.9439 42.1461 145° Southeast  Level Estimated
Wed 07:43:00 AM 37.8182 42.2571 145° Southeast  Level Estimated
Wed 07:44:00 AM 37.6923 42.3678 145° Southeast  Level Estimated
Wed 07:45:00 AM 37.5664 42.4781 145° Southeast  Level Estimated
Wed 07:46:00 AM 37.4403 42.5880 145° Southeast  Level Estimated
Wed 07:47:00 AM 37.3142 42.6976 145° Southeast  Level Estimated
Wed 07:48:00 AM 37.1879 42.8067 145° Southeast  Level Estimated
Wed 07:49:00 AM 37.0616 42.9156 145° Southeast  Level Estimated
Wed 07:50:00 AM 36.9351 43.0240 146° Southeast  Level Estimated
Wed 07:51:00 AM 36.8086 43.1321 146° Southeast  Level Estimated
Wed 07:52:00 AM 36.6820 43.2398 146° Southeast  Level Estimated
Wed 07:53:00 AM 36.5552 43.3472 146° Southeast  Level Estimated
Wed 07:54:00 AM 36.4284 43.4543 146° Southeast  Level Estimated
Wed 07:55:00 AM 36.3015 43.5609 146° Southeast  Level Estimated
Wed 07:56:00 AM 36.1744 43.6673 146° Southeast  Level Estimated
Wed 07:57:00 AM 36.0473 43.7733 146° Southeast  Level Estimated
Wed 07:58:00 AM 35.9201 43.8789 146° Southeast  Level Estimated
Wed 07:59:00 AM 35.7928 43.9842 146° Southeast  Level Estimated
Wed 08:00:00 AM 35.6654 44.0892 146° Southeast  Level Estimated
Wed 08:01:00 AM 35.5379 44.1938 146° Southeast  Level Estimated
Wed 08:02:00 AM 35.4104 44.2981 146° Southeast  Level Estimated
Wed 08:03:00 AM 35.2827 44.4021 146° Southeast  Level Estimated
Wed 08:04:00 AM 35.1549 44.5058 146° Southeast  Level Estimated
Wed 08:04:44 AM 35.1160 44.4130 146° Southeast 509 586 37,000  Level FlightAware ADS-B
Wed 08:05:00 AM 35.0271 44.6091 146° Southeast  Level Estimated
Wed 08:05:36 AM 35.0190 44.4580 159° South 509 586 37,000  Level FlightAware ADS-B
Wed 08:06:01 AM 34.9720 44.4800 159° South 509 586 37,000  Level FlightAware ADS-B
Wed 08:06:37 AM 34.9050 44.5120 159° South 509 586 37,000  Level FlightAware ADS-B
Wed 08:07:13 AM 34.8380 44.5430 159° South 509 586 37,000  Level FlightAware ADS-B
Wed 08:07:49 AM 34.7710 44.5750 159° South 509 586 37,000  Level FlightAware ADS-B
Wed 08:08:31 AM 34.6150 44.6280 164° South 508 585 37,000  Level FlightAware ADS-B
Wed 08:09:09 AM 34.5440 44.6580 161° South 508 585 37,000  Level FlightAware ADS-B
Wed 08:09:46 AM 34.4440 44.7030 160° South 510 587 37,000  Level FlightAware ADS-B
Wed 08:10:51 AM 34.3050 44.7720 158° South 510 587 37,000  Level FlightAware ADS-B
Wed 08:11:07 AM 34.2660 44.7910 158° South 510 587 37,000  Level FlightAware ADS-B
Wed 08:12:04 AM 34.1410 44.8520 158° South 512 589 37,000  Level FlightAware ADS-B
Wed 08:12:48 AM 34.0460 44.8980 158° South 513 590 37,000  Level FlightAware ADS-B
Wed 08:13:34 AM 33.9420 44.9490 158° South 512 589 37,000  Level FlightAware ADS-B
Wed 08:14:11 AM 33.8670 44.9850 158° South 510 587 37,000  Level FlightAware ADS-B
Wed 08:14:47 AM 33.7840 45.0250 158° South 511 588 37,000  Level FlightAware ADS-B
Wed 08:16:00 AM 33.6220 45.1020 158° South 508 585 37,000  Level FlightAware ADS-B
Wed 08:16:28 AM 33.5610 45.1300 159° South 509 586 37,000  Level FlightAware ADS-B
Wed 08:17:07 AM 33.4760 45.1690 159° South 509 586 37,000  Level FlightAware ADS-B
Wed 08:17:44 AM 33.3930 45.2070 159° South 509 586 37,000  Level FlightAware ADS-B
Wed 08:18:20 AM 33.3140 45.2430 159° South 508 585 37,000  Level FlightAware ADS-B
Wed 08:19:01 AM 33.2270 45.2850 158° South 508 585 37,000  Level FlightAware ADS-B
Wed 08:19:33 AM 33.1560 45.3210 157° South 508 585 37,000  Level FlightAware ADS-B
Wed 08:20:06 AM 33.0870 45.3560 157° South 507 583 37,000  Level FlightAware ADS-B
Wed 08:21:20 AM 32.9230 45.4370 157° South 507 583 37,000  Level FlightAware ADS-B
Wed 08:22:04 AM 32.8280 45.4830 158° South 508 585 37,000  Level FlightAware ADS-B
Wed 08:23:05 AM 32.6960 45.5450 158° South 508 585 37,000  Level FlightAware ADS-B
Wed 08:23:46 AM 32.6120 45.5980 152° Southeast 523 602 37,000  Level FlightAware ADS-B
Wed 08:24:22 AM 32.5430 45.6680 139° Southeast 530 610 37,000  Level FlightAware ADS-B
Wed 08:25:36 AM 32.4270 45.7990 136° Southeast 531 611 37,000  Level FlightAware ADS-B
Wed 08:26:12 AM 32.3730 45.8610 136° Southeast 531 611 37,000  Level FlightAware ADS-B
Wed 08:26:44 AM 32.2970 45.9430 138° Southeast 530 610 37,000  Level FlightAware ADS-B
Wed 08:27:20 AM 32.2430 46.0040 136° Southeast 530 610 37,000  Level FlightAware ADS-B
Wed 08:27:56 AM 32.1890 46.0660 136° Southeast 530 610 37,000  Level FlightAware ADS-B
Wed 08:29:03 AM 32.0620 46.1970 139° Southeast 527 606 37,000  Level FlightAware ADS-B
Wed 08:29:53 AM 31.9860 46.2800 137° Southeast 527 606 37,000  Level FlightAware ADS-B
Wed 08:30:41 AM 31.9140 46.3600 137° Southeast 527 606 37,000  Level FlightAware ADS-B
Wed 08:31:17 AM 31.8590 46.4200 137° Southeast 527 606 37,000  Level FlightAware ADS-B
Wed 08:31:53 AM 31.8040 46.4800 137° Southeast 527 606 37,000  Level FlightAware ADS-B
Wed 08:35:00 AM 31.4151 46.8056 144° Southeast  Level Estimated
Wed 08:35:22 AM 31.3770 46.9310 145° Southeast 533 613 37,000  Level FlightAware ADS-B
Wed 08:35:56 AM 31.3240 46.9900 136° Southeast 533 613 37,000  Level FlightAware ADS-B
Wed 08:36:00 AM 31.2901 46.9095 145° Southeast  Level Estimated
Wed 08:36:31 AM 31.2530 47.0630 139° Southeast 534 615 37,000  Level FlightAware ADS-B
Wed 08:37:04 AM 31.1830 47.1380 137° Southeast 534 615 37,000  Level FlightAware ADS-B
Wed 08:37:48 AM 31.1030 47.2230 138° Southeast 533 613 37,000  Level FlightAware ADS-B
Wed 08:38:12 AM 31.0710 47.2570 138° Southeast 533 613 37,000  Level FlightAware ADS-B
Wed 08:39:05 AM 30.9670 47.3660 138° Southeast 534 615 37,000  Level FlightAware ADS-B
Wed 08:39:45 AM 30.9050 47.4330 137° Southeast 534 615 37,000  Level FlightAware ADS-B
Wed 08:40:07 AM 30.8520 47.4860 139° Southeast 535 616 37,000  Level FlightAware ADS-B
Wed 08:40:50 AM 30.7680 47.5750 138° Southeast 536 617 37,000  Level FlightAware ADS-B
Wed 08:41:27 AM 30.7000 47.6460 138° Southeast 537 618 37,000  Level FlightAware ADS-B
Wed 08:42:07 AM 30.6280 47.7210 138° Southeast 538 619 37,000  Level FlightAware ADS-B
Wed 08:43:20 AM 30.4910 47.8630 138° Southeast 540 621 37,000  Level FlightAware ADS-B
Wed 08:43:52 AM 30.4290 47.9270 138° Southeast 540 621 37,000  Level FlightAware ADS-B
Wed 08:44:27 AM 30.3700 47.9890 138° Southeast 539 620 37,000  Level FlightAware ADS-B
Wed 08:45:18 AM 30.2690 48.0920 139° Southeast 538 619 37,000  Level FlightAware ADS-B
Wed 08:46:27 AM 30.1370 48.2280 138° Southeast 536 617 37,000  Level FlightAware ADS-B
Wed 08:46:57 AM 30.0860 48.2800 139° Southeast 536 617 37,000  Level FlightAware ADS-B
Wed 08:47:31 AM 30.0180 48.3500 138° Southeast 535 616 37,000  Level FlightAware ADS-B
Wed 08:48:10 AM 29.9530 48.4170 138° Southeast 536 617 37,000  Level FlightAware ADS-B
Wed 08:48:57 AM 29.8590 48.5020 142° Southeast 528 608 37,000  Level FlightAware ADS-B
Wed 08:49:22 AM 29.8090 48.5350 150° Southeast 521 600 37,000  Level FlightAware ADS-B
Wed 08:50:00 AM 29.7250 48.5840 153° Southeast 522 601 37,000  Level FlightAware ADS-B
Wed 08:50:34 AM 29.6540 48.6260 153° Southeast 522 601 37,000  Level FlightAware ADS-B
Wed 08:51:05 AM 29.5870 48.6650 153° Southeast 521 600 37,000  Level FlightAware ADS-B
Wed 08:51:43 AM 29.5030 48.7140 153° Southeast 521 600 37,000  Level FlightAware ADS-B
Wed 08:52:20 AM 29.4220 48.7620 153° Southeast 521 600 37,000  Level FlightAware ADS-B
Wed 08:53:18 AM 29.2990 48.8340 153° Southeast 522 601 37,000  Level FlightAware ADS-B
Wed 08:53:51 AM 29.2300 48.8740 153° Southeast 521 600 37,000  Level FlightAware ADS-B
Wed 08:54:23 AM 29.1780 48.9040 153° Southeast 521 600 37,000  Level FlightAware ADS-B
Wed 08:55:06 AM 29.0670 48.9680 153° Southeast 522 601 37,000  Level FlightAware ADS-B
Wed 08:56:07 AM 28.9320 49.0470 153° Southeast 525 604 37,000  Level FlightAware ADS-B
Wed 08:56:39 AM 28.8650 49.0850 154° Southeast 525 604 37,000  Level FlightAware ADS-B
Wed 08:57:10 AM 28.7980 49.1240 153° Southeast 525 604 37,000  Level FlightAware ADS-B
Wed 08:57:57 AM 28.6960 49.1830 153° Southeast 526 605 37,000  Level FlightAware ADS-B
Wed 08:58:27 AM 28.6280 49.2220 153° Southeast 526 605 37,000  Level FlightAware ADS-B
Wed 08:58:52 AM 28.5840 49.2480 153° Southeast 525 604 37,000  Level FlightAware ADS-B
Wed 08:59:35 AM 28.4870 49.3030 154° Southeast 523 602 37,000  Level FlightAware ADS-B
Wed 09:00:12 AM 28.4190 49.3420 153° Southeast 523 602 37,000  Level FlightAware ADS-B
Wed 09:00:49 AM 28.3510 49.3820 153° Southeast 523 602 37,000  Level FlightAware ADS-B
Wed 09:01:25 AM 28.2850 49.4200 153° Southeast 523 602 37,000  Level FlightAware ADS-B
Wed 09:02:02 AM 28.2170 49.4590 153° Southeast 523 602 37,000  Level FlightAware ADS-B
Wed 09:02:37 AM 28.0910 49.5330 153° Southeast 656 755 37,000  Level FlightAware ADS-B
Wed 09:03:07 AM 28.0380 49.5730 146° Southeast 528 608 37,000  Level FlightAware ADS-B
Wed 09:03:49 AM 27.9490 49.6460 144° Southeast 529 609 37,000  Level FlightAware ADS-B
Wed 09:04:36 AM 27.8630 49.7160 144° Southeast 529 609 37,000  Level FlightAware ADS-B
Wed 09:04:59 AM 27.8190 49.7520 144° Southeast 529 609 37,000  Level FlightAware ADS-B
Wed 09:05:38 AM 27.7540 49.8060 144° Southeast 529 609 37,000  Level FlightAware ADS-B
Wed 09:06:26 AM 27.6730 49.8720 144° Southeast 529 609 37,000  Level FlightAware ADS-B
Wed 09:07:02 AM 27.6120 49.9220 144° Southeast 529 609 37,000  Level FlightAware ADS-B
Wed 09:07:36 AM 27.5550 49.9690 144° Southeast 529 609 37,000  Level FlightAware ADS-B
Wed 09:08:12 AM 27.4950 50.0190 144° Southeast 529 609 37,000  Level FlightAware ADS-B
Wed 09:08:58 AM 27.4170 50.0820 144° Southeast 529 609 37,000  Level FlightAware ADS-B
Wed 09:10:12 AM 27.2930 50.1840 144° Southeast 529 609 37,000  Level FlightAware ADS-B
Wed 09:10:48 AM 27.2320 50.2330 144° Southeast 529 609 37,000  Level FlightAware ADS-B
Wed 09:11:24 AM 27.1710 50.2830 144° Southeast 529 609 37,000  Level FlightAware ADS-B
Wed 09:11:36 AM 27.1510 50.2990 145° Southeast 529 609 37,000  Level FlightAware ADS-B
Wed 09:13:07 AM 26.9980 50.4240 144° Southeast 529 609 37,000  Level FlightAware ADS-B
Wed 09:13:31 AM 26.9580 50.4570 144° Southeast 529 609 37,000 -3,885 Level FlightAware ADS-B
Wed 09:15:26 AM 26.5630 50.7550 149° Southeast 501 577 28,000 -3,667 Descending FlightAware ADS-B
Wed 09:16:00 AM 26.6303 50.6739 149° Southeast  Level Estimated
Wed 09:16:31 AM 26.4400 50.8450 147° Southeast 479 551 26,000  Level FlightAware ADS-B
Wed 09:17:06 AM 26.3800 50.9010 140° Southeast 473 544 25,100 -750 Descending FlightAware ADS-B
Wed 09:17:51 AM 26.3200 50.9870 128° Southeast 475 547 25,000 -80 Descending FlightAware ADS-B
Wed 09:18:21 AM 26.2830 51.0500 123° Southeast 476 548 25,000  Level FlightAware ADS-B
Wed 09:18:56 AM 26.2410 51.1200 124° Southeast 478 550 25,000  Level FlightAware ADS-B
Wed 09:19:52 AM 26.1730 51.2360 123° Southeast 473 544 25,000  Level FlightAware ADS-B
Wed 09:20:27 AM 26.1310 51.3060 124° Southeast 472 543 25,000 -1,125 Level FlightAware ADS-B
Wed 09:21:12 AM 26.0770 51.3980 123° Southeast 462 532 23,500 -1,920 Descending FlightAware ADS-B
Wed 09:21:42 AM 26.0440 51.4600 121° Southeast 461 531 22,600 -1,909 Descending FlightAware ADS-B
Wed 09:22:18 AM 26.0090 51.5290 119° Southeast 451 519 21,400 -1,950 Descending FlightAware ADS-B
Wed 09:23:02 AM 25.9620 51.6230 119° Southeast 439 505 20,000 -1,920 Descending FlightAware ADS-B
Wed 09:23:33 AM 25.9270 51.6790 125° Southeast 431 496 19,000 -1,953 Descending FlightAware ADS-B
Wed 09:24:28 AM 25.8320 51.7360 152° Southeast 409 471 17,200 -1,860 Descending FlightAware ADS-B
Wed 09:25:13 AM 25.7480 51.7540 169° South 408 470 15,900 -1,765 Descending FlightAware ADS-B
Wed 09:25:53 AM 25.6730 51.7710 168° South 392 451 14,700 -1,667 Descending FlightAware ADS-B
Wed 09:26:25 AM 25.6180 51.7840 168° South 358 412 13,900 -1,440 Descending FlightAware ADS-B
Wed 09:27:08 AM 25.5520 51.7990 168° South 313 360 12,900 -1,461 Descending FlightAware ADS-B
Wed 09:28:20 AM 25.4570 51.8110 173° South 291 335 11,100 -1,459 Descending FlightAware ADS-B
Wed 09:28:59 AM 25.4020 51.8110 180° South 291 335 10,200 -1,214 Descending FlightAware ADS-B
Wed 09:29:44 AM 25.3400 51.8100 181° South 288 331 9,400 -1,032 Descending FlightAware ADS-B
Wed 09:30:32 AM 25.2780 51.8080 182° South 281 323 8,600 -1,000 Descending FlightAware ADS-B
Wed 09:30:56 AM 25.2460 51.8080 180° South 277 319 8,200 -1,100 Descending FlightAware ADS-B
Wed 09:31:32 AM 25.2000 51.8070 181° South 269 310 7,500 -1,217 Descending FlightAware ADS-B
Wed 09:32:05 AM 25.1590 51.8060 181° South 270 311 6,800 -1,167 Descending FlightAware ADS-B
Wed 09:32:44 AM 25.1110 51.8050 181° South 266 306 6,100 -1,000 Descending FlightAware ADS-B
Wed 09:33:29 AM 25.0560 51.8010 184° South 254 292 5,400 -857 Descending FlightAware ADS-B
Wed 09:34:01 AM 25.0320 51.7760 223° Southwest 227 261 5,000 -684 Descending FlightAware ADS-B
Wed 09:34:48 AM 25.0150 51.7280 249° West 193 222 4,500 -750 Descending FlightAware ADS-B
Wed 09:35:21 AM 25.0200 51.7000 281° West 180 207 4,000 -771 Descending FlightAware ADS-B
Wed 09:35:58 AM 25.0360 51.6710 301° West 175 201 3,600 -593 Descending FlightAware ADS-B
Wed 09:36:42 AM 25.0640 51.6520 328° Northwest 158 182 3,200 -583 Descending FlightAware ADS-B
Wed 09:37:10 AM 25.0840 51.6430 338° Northwest 164 189 2,900 -677 Descending FlightAware ADS-B
Wed 09:37:44 AM 25.1070 51.6330 339° North 159 183 2,500 -632 Descending FlightAware ADS-B
Wed 09:38:26 AM 25.1360 51.6200 338° Northwest 161 185 2,100 -723 Descending FlightAware ADS-B
Wed 09:39:07 AM 25.1650 51.6080 339° North 159 183 1,500 -822 Descending FlightAware ADS-B
Wed 09:39:39 AM 25.1850 51.5980 336° Northwest 144 166 1,100 -750 Descending FlightAware ADS-B
Wed 09:40:27 AM 25.2160 51.5850 339° North 146 168 500 -750 Descending FlightAware ADS-B
Wed 09:41:15 AM 25.2460 51.5720 339° North 148 170 -625 Descending FlightAware ADS-B

Login

Don't have an account? Register now (free) for customized features, flight alerts, and more!